<?xml version="1.0" encoding="UTF-8" standalone="no" ?>
<gpx xmlns="http://www.topografix.com/GPX/1/1" xmlns:xsi="http://www.w3.org/2001/XMLSchema-instance" xsi:schemaLocation="http://www.topografix.com/GPX/1/1 http://www.topografix.com/GPX/1/1/gpx.xsd" version="1.1" creator="VisuGPX - https://www.visugpx.com">
  <metadata>
    <name>Grand Raid des Pyrénées 2017 - Tour des Lacs</name>
    <desc><![CDATA[Le départ sera donné le samedi à 5 heures. Les coureurs monteront par des routes carrossables puis des pistes de ski au Col du Portet. Ils basculeront ensuite sur le secteur du Néouvielle pour rejoindre la cabane d'Aygues Cluses par le Col de Barèges puis Tournaboup. Ensuite montée vers le Col de Sencours, puis Pic du Midi, retour au Col de Sencours puis descente à la Mongie. Retour dans la zone du Néouveille par le refuge de Campana de Cloutou pour passer le Col de Bastanet et rejoindre le Col de Portet qui ramène à Vielle Aure.

http://www.grandraidpyrenees.com/parcours-tour-des-lacs-2017/]]></desc>
  </metadata>
  <trk>
    <name><![CDATA[OR-6738075--Vielle-Aure:GRP 2017 Tour des Lacs]]></name>
    <trkseg>
      <trkpt lat="42.82985" lon="0.32715">
        <ele>793</ele>
        <time>2016-12-27T21:30:15Z</time>
      </trkpt>
      <trkpt lat="42.82963" lon="0.32845">
        <ele>792</ele>
        <time>2016-12-27T21:32:15Z</time>
      </trkpt>
      <trkpt lat="42.8292" lon="0.32881">
        <ele>792</ele>
        <time>2016-12-27T21:34:15Z</time>
      </trkpt>
      <trkpt lat="42.8267" lon="0.32806">
        <ele>796</ele>
        <time>2016-12-27T21:36:15Z</time>
      </trkpt>
      <trkpt lat="42.82395" lon="0.32495">
        <ele>800</ele>
        <time>2016-12-27T21:38:15Z</time>
      </trkpt>
      <trkpt lat="42.82314" lon="0.32375">
        <ele>800</ele>
        <time>2016-12-27T21:40:15Z</time>
      </trkpt>
      <trkpt lat="42.82114" lon="0.3225">
        <ele>800</ele>
        <time>2016-12-27T21:42:15Z</time>
      </trkpt>
      <trkpt lat="42.81993" lon="0.3225">
        <ele>800</ele>
        <time>2016-12-27T21:44:15Z</time>
      </trkpt>
      <trkpt lat="42.82052" lon="0.32118">
        <ele>800</ele>
        <time>2016-12-27T21:46:15Z</time>
      </trkpt>
      <trkpt lat="42.82096" lon="0.32058">
        <ele>800</ele>
        <time>2016-12-27T21:48:15Z</time>
      </trkpt>
      <trkpt lat="42.82184" lon="0.31831">
        <ele>800</ele>
        <time>2016-12-27T21:50:15Z</time>
      </trkpt>
      <trkpt lat="42.82262" lon="0.31672">
        <ele>800</ele>
        <time>2016-12-27T21:52:15Z</time>
      </trkpt>
      <trkpt lat="42.82358" lon="0.31611">
        <ele>802</ele>
        <time>2016-12-27T21:54:15Z</time>
      </trkpt>
      <trkpt lat="42.8234" lon="0.31508">
        <ele>805</ele>
        <time>2016-12-27T21:56:15Z</time>
      </trkpt>
      <trkpt lat="42.82371" lon="0.31396">
        <ele>816</ele>
        <time>2016-12-27T21:58:15Z</time>
      </trkpt>
      <trkpt lat="42.82624" lon="0.31377">
        <ele>832</ele>
        <time>2016-12-27T22:00:15Z</time>
      </trkpt>
      <trkpt lat="42.82454" lon="0.31278">
        <ele>844</ele>
        <time>2016-12-27T22:02:15Z</time>
      </trkpt>
      <trkpt lat="42.82625" lon="0.31249">
        <ele>868</ele>
        <time>2016-12-27T22:04:15Z</time>
      </trkpt>
      <trkpt lat="42.82743" lon="0.31182">
        <ele>891</ele>
        <time>2016-12-27T22:06:15Z</time>
      </trkpt>
      <trkpt lat="42.82647" lon="0.31162">
        <ele>917</ele>
        <time>2016-12-27T22:08:15Z</time>
      </trkpt>
      <trkpt lat="42.82552" lon="0.31183">
        <ele>912</ele>
        <time>2016-12-27T22:10:15Z</time>
      </trkpt>
      <trkpt lat="42.82635" lon="0.31126">
        <ele>947</ele>
        <time>2016-12-27T22:12:15Z</time>
      </trkpt>
      <trkpt lat="42.8268" lon="0.31108">
        <ele>947</ele>
        <time>2016-12-27T22:14:15Z</time>
      </trkpt>
      <trkpt lat="42.82734" lon="0.30981">
        <ele>975</ele>
        <time>2016-12-27T22:16:15Z</time>
      </trkpt>
      <trkpt lat="42.82668" lon="0.31055">
        <ele>982</ele>
        <time>2016-12-27T22:18:15Z</time>
      </trkpt>
      <trkpt lat="42.82606" lon="0.31075">
        <ele>992</ele>
        <time>2016-12-27T22:20:15Z</time>
      </trkpt>
      <trkpt lat="42.82676" lon="0.30994">
        <ele>1002</ele>
        <time>2016-12-27T22:22:15Z</time>
      </trkpt>
      <trkpt lat="42.82742" lon="0.3084">
        <ele>1007</ele>
        <time>2016-12-27T22:24:15Z</time>
      </trkpt>
      <trkpt lat="42.82776" lon="0.30711">
        <ele>1025</ele>
        <time>2016-12-27T22:26:15Z</time>
      </trkpt>
      <trkpt lat="42.82807" lon="0.30523">
        <ele>1053</ele>
        <time>2016-12-27T22:28:15Z</time>
      </trkpt>
      <trkpt lat="42.82713" lon="0.30667">
        <ele>1069</ele>
        <time>2016-12-27T22:30:15Z</time>
      </trkpt>
      <trkpt lat="42.82554" lon="0.30773">
        <ele>1092</ele>
        <time>2016-12-27T22:32:15Z</time>
      </trkpt>
      <trkpt lat="42.82644" lon="0.30647">
        <ele>1108</ele>
        <time>2016-12-27T22:34:15Z</time>
      </trkpt>
      <trkpt lat="42.8257" lon="0.30707">
        <ele>1113</ele>
        <time>2016-12-27T22:36:15Z</time>
      </trkpt>
      <trkpt lat="42.82639" lon="0.30555">
        <ele>1130</ele>
        <time>2016-12-27T22:38:15Z</time>
      </trkpt>
      <trkpt lat="42.82575" lon="0.30627">
        <ele>1135</ele>
        <time>2016-12-27T22:40:15Z</time>
      </trkpt>
      <trkpt lat="42.82521" lon="0.30605">
        <ele>1148</ele>
        <time>2016-12-27T22:42:15Z</time>
      </trkpt>
      <trkpt lat="42.82569" lon="0.30591">
        <ele>1146</ele>
        <time>2016-12-27T22:44:15Z</time>
      </trkpt>
      <trkpt lat="42.82406" lon="0.30418">
        <ele>1190</ele>
        <time>2016-12-27T22:46:15Z</time>
      </trkpt>
      <trkpt lat="42.82398" lon="0.3024">
        <ele>1216</ele>
        <time>2016-12-27T22:48:15Z</time>
      </trkpt>
      <trkpt lat="42.82371" lon="0.30023">
        <ele>1244</ele>
        <time>2016-12-27T22:50:15Z</time>
      </trkpt>
      <trkpt lat="42.82437" lon="0.29879">
        <ele>1255</ele>
        <time>2016-12-27T22:52:15Z</time>
      </trkpt>
      <trkpt lat="42.82443" lon="0.29686">
        <ele>1277</ele>
        <time>2016-12-27T22:54:15Z</time>
      </trkpt>
      <trkpt lat="42.82426" lon="0.29475">
        <ele>1299</ele>
        <time>2016-12-27T22:56:15Z</time>
      </trkpt>
      <trkpt lat="42.82404" lon="0.2962">
        <ele>1284</ele>
        <time>2016-12-27T22:58:15Z</time>
      </trkpt>
      <trkpt lat="42.8239" lon="0.29547">
        <ele>1293</ele>
        <time>2016-12-27T23:00:15Z</time>
      </trkpt>
      <trkpt lat="42.82349" lon="0.29463">
        <ele>1306</ele>
        <time>2016-12-27T23:02:15Z</time>
      </trkpt>
      <trkpt lat="42.82285" lon="0.29475">
        <ele>1330</ele>
        <time>2016-12-27T23:04:15Z</time>
      </trkpt>
      <trkpt lat="42.82215" lon="0.29562">
        <ele>1354</ele>
        <time>2016-12-27T23:06:15Z</time>
      </trkpt>
      <trkpt lat="42.82157" lon="0.29566">
        <ele>1381</ele>
        <time>2016-12-27T23:08:15Z</time>
      </trkpt>
      <trkpt lat="42.82056" lon="0.29441">
        <ele>1431</ele>
        <time>2016-12-27T23:10:15Z</time>
      </trkpt>
      <trkpt lat="42.81971" lon="0.29139">
        <ele>1487</ele>
        <time>2016-12-27T23:12:15Z</time>
      </trkpt>
      <trkpt lat="42.81945" lon="0.29023">
        <ele>1504</ele>
        <time>2016-12-27T23:14:15Z</time>
      </trkpt>
      <trkpt lat="42.81923" lon="0.2912">
        <ele>1507</ele>
        <time>2016-12-27T23:16:15Z</time>
      </trkpt>
      <trkpt lat="42.81918" lon="0.28975">
        <ele>1520</ele>
        <time>2016-12-27T23:18:15Z</time>
      </trkpt>
      <trkpt lat="42.81838" lon="0.29133">
        <ele>1531</ele>
        <time>2016-12-27T23:20:15Z</time>
      </trkpt>
      <trkpt lat="42.81784" lon="0.2914">
        <ele>1537</ele>
        <time>2016-12-27T23:22:15Z</time>
      </trkpt>
      <trkpt lat="42.81864" lon="0.28971">
        <ele>1542</ele>
        <time>2016-12-27T23:24:15Z</time>
      </trkpt>
      <trkpt lat="42.81873" lon="0.28857">
        <ele>1549</ele>
        <time>2016-12-27T23:26:15Z</time>
      </trkpt>
      <trkpt lat="42.81826" lon="0.28957">
        <ele>1557</ele>
        <time>2016-12-27T23:28:15Z</time>
      </trkpt>
      <trkpt lat="42.81759" lon="0.28987">
        <ele>1563</ele>
        <time>2016-12-27T23:30:15Z</time>
      </trkpt>
      <trkpt lat="42.81715" lon="0.28949">
        <ele>1580</ele>
        <time>2016-12-27T23:32:15Z</time>
      </trkpt>
      <trkpt lat="42.81799" lon="0.28907">
        <ele>1569</ele>
        <time>2016-12-27T23:34:15Z</time>
      </trkpt>
      <trkpt lat="42.81811" lon="0.28723">
        <ele>1593</ele>
        <time>2016-12-27T23:36:15Z</time>
      </trkpt>
      <trkpt lat="42.81768" lon="0.28783">
        <ele>1598</ele>
        <time>2016-12-27T23:38:15Z</time>
      </trkpt>
      <trkpt lat="42.81788" lon="0.28653">
        <ele>1613</ele>
        <time>2016-12-27T23:40:15Z</time>
      </trkpt>
      <trkpt lat="42.81851" lon="0.28602">
        <ele>1599</ele>
        <time>2016-12-27T23:42:15Z</time>
      </trkpt>
      <trkpt lat="42.81915" lon="0.28393">
        <ele>1626</ele>
        <time>2016-12-27T23:44:15Z</time>
      </trkpt>
      <trkpt lat="42.81918" lon="0.28204">
        <ele>1671</ele>
        <time>2016-12-27T23:46:15Z</time>
      </trkpt>
      <trkpt lat="42.81963" lon="0.2809">
        <ele>1689</ele>
        <time>2016-12-27T23:48:15Z</time>
      </trkpt>
      <trkpt lat="42.81894" lon="0.27822">
        <ele>1759</ele>
        <time>2016-12-27T23:50:15Z</time>
      </trkpt>
      <trkpt lat="42.81889" lon="0.27761">
        <ele>1772</ele>
        <time>2016-12-27T23:52:15Z</time>
      </trkpt>
      <trkpt lat="42.81889" lon="0.27714">
        <ele>1781</ele>
        <time>2016-12-27T23:54:15Z</time>
      </trkpt>
      <trkpt lat="42.81874" lon="0.27616">
        <ele>1807</ele>
        <time>2016-12-27T23:56:15Z</time>
      </trkpt>
      <trkpt lat="42.81886" lon="0.27535">
        <ele>1830</ele>
        <time>2016-12-27T23:58:15Z</time>
      </trkpt>
      <trkpt lat="42.8193" lon="0.27472">
        <ele>1841</ele>
        <time>2016-12-28T00:00:15Z</time>
      </trkpt>
      <trkpt lat="42.82024" lon="0.27446">
        <ele>1820</ele>
        <time>2016-12-28T00:02:15Z</time>
      </trkpt>
      <trkpt lat="42.82044" lon="0.27388">
        <ele>1815</ele>
        <time>2016-12-28T00:04:15Z</time>
      </trkpt>
      <trkpt lat="42.82059" lon="0.27297">
        <ele>1810</ele>
        <time>2016-12-28T00:06:15Z</time>
      </trkpt>
      <trkpt lat="42.82045" lon="0.27107">
        <ele>1823</ele>
        <time>2016-12-28T00:08:15Z</time>
      </trkpt>
      <trkpt lat="42.82042" lon="0.26985">
        <ele>1825</ele>
        <time>2016-12-28T00:10:15Z</time>
      </trkpt>
      <trkpt lat="42.82038" lon="0.26945">
        <ele>1826</ele>
        <time>2016-12-28T00:12:15Z</time>
      </trkpt>
      <trkpt lat="42.82028" lon="0.26888">
        <ele>1828</ele>
        <time>2016-12-28T00:14:15Z</time>
      </trkpt>
      <trkpt lat="42.81954" lon="0.2674">
        <ele>1864</ele>
        <time>2016-12-28T00:16:15Z</time>
      </trkpt>
      <trkpt lat="42.81953" lon="0.26568">
        <ele>1872</ele>
        <time>2016-12-28T00:18:15Z</time>
      </trkpt>
      <trkpt lat="42.82007" lon="0.26351">
        <ele>1865</ele>
        <time>2016-12-28T00:20:15Z</time>
      </trkpt>
      <trkpt lat="42.82083" lon="0.26297">
        <ele>1833</ele>
        <time>2016-12-28T00:22:15Z</time>
      </trkpt>
      <trkpt lat="42.82099" lon="0.26245">
        <ele>1828</ele>
        <time>2016-12-28T00:24:15Z</time>
      </trkpt>
      <trkpt lat="42.82097" lon="0.26193">
        <ele>1831</ele>
        <time>2016-12-28T00:26:15Z</time>
      </trkpt>
      <trkpt lat="42.82094" lon="0.26161">
        <ele>1833</ele>
        <time>2016-12-28T00:28:15Z</time>
      </trkpt>
      <trkpt lat="42.82085" lon="0.26121">
        <ele>1838</ele>
        <time>2016-12-28T00:30:15Z</time>
      </trkpt>
      <trkpt lat="42.82091" lon="0.26084">
        <ele>1834</ele>
        <time>2016-12-28T00:32:15Z</time>
      </trkpt>
      <trkpt lat="42.82071" lon="0.26024">
        <ele>1844</ele>
        <time>2016-12-28T00:34:15Z</time>
      </trkpt>
      <trkpt lat="42.82074" lon="0.25959">
        <ele>1842</ele>
        <time>2016-12-28T00:36:15Z</time>
      </trkpt>
      <trkpt lat="42.8206" lon="0.259">
        <ele>1852</ele>
        <time>2016-12-28T00:38:15Z</time>
      </trkpt>
      <trkpt lat="42.82113" lon="0.25764">
        <ele>1836</ele>
        <time>2016-12-28T00:40:15Z</time>
      </trkpt>
      <trkpt lat="42.82138" lon="0.25695">
        <ele>1833</ele>
        <time>2016-12-28T00:42:15Z</time>
      </trkpt>
      <trkpt lat="42.82138" lon="0.25569">
        <ele>1852</ele>
        <time>2016-12-28T00:44:15Z</time>
      </trkpt>
      <trkpt lat="42.82172" lon="0.25515">
        <ele>1847</ele>
        <time>2016-12-28T00:46:15Z</time>
      </trkpt>
      <trkpt lat="42.82203" lon="0.25464">
        <ele>1843</ele>
        <time>2016-12-28T00:48:15Z</time>
      </trkpt>
      <trkpt lat="42.82216" lon="0.25406">
        <ele>1856</ele>
        <time>2016-12-28T00:50:15Z</time>
      </trkpt>
      <trkpt lat="42.82277" lon="0.25342">
        <ele>1845</ele>
        <time>2016-12-28T00:52:15Z</time>
      </trkpt>
      <trkpt lat="42.82366" lon="0.2527">
        <ele>1826</ele>
        <time>2016-12-28T00:54:15Z</time>
      </trkpt>
      <trkpt lat="42.82499" lon="0.25155">
        <ele>1811</ele>
        <time>2016-12-28T00:56:15Z</time>
      </trkpt>
      <trkpt lat="42.82549" lon="0.24909">
        <ele>1840</ele>
        <time>2016-12-28T00:58:15Z</time>
      </trkpt>
      <trkpt lat="42.8257" lon="0.24842">
        <ele>1859</ele>
        <time>2016-12-28T01:00:15Z</time>
      </trkpt>
      <trkpt lat="42.82712" lon="0.24908">
        <ele>1868</ele>
        <time>2016-12-28T01:02:15Z</time>
      </trkpt>
      <trkpt lat="42.82835" lon="0.24932">
        <ele>1874</ele>
        <time>2016-12-28T01:04:15Z</time>
      </trkpt>
      <trkpt lat="42.8293" lon="0.24823">
        <ele>1915</ele>
        <time>2016-12-28T01:06:15Z</time>
      </trkpt>
      <trkpt lat="42.83021" lon="0.24703">
        <ele>1939</ele>
        <time>2016-12-28T01:08:15Z</time>
      </trkpt>
      <trkpt lat="42.83194" lon="0.2468">
        <ele>1945</ele>
        <time>2016-12-28T01:10:15Z</time>
      </trkpt>
      <trkpt lat="42.8328" lon="0.245">
        <ele>1984</ele>
        <time>2016-12-28T01:12:15Z</time>
      </trkpt>
      <trkpt lat="42.83318" lon="0.24392">
        <ele>2005</ele>
        <time>2016-12-28T01:14:15Z</time>
      </trkpt>
      <trkpt lat="42.83378" lon="0.2416">
        <ele>2067</ele>
        <time>2016-12-28T01:16:15Z</time>
      </trkpt>
      <trkpt lat="42.83343" lon="0.24074">
        <ele>2090</ele>
        <time>2016-12-28T01:18:15Z</time>
      </trkpt>
      <trkpt lat="42.83271" lon="0.24009">
        <ele>2122</ele>
        <time>2016-12-28T01:20:15Z</time>
      </trkpt>
      <trkpt lat="42.83381" lon="0.23899">
        <ele>2149</ele>
        <time>2016-12-28T01:22:15Z</time>
      </trkpt>
      <trkpt lat="42.83461" lon="0.23733">
        <ele>2196</ele>
        <time>2016-12-28T01:24:15Z</time>
      </trkpt>
      <trkpt lat="42.83308" lon="0.23616">
        <ele>2212</ele>
        <time>2016-12-28T01:26:15Z</time>
      </trkpt>
      <trkpt lat="42.83112" lon="0.233">
        <ele>2192</ele>
        <time>2016-12-28T01:28:15Z</time>
      </trkpt>
      <trkpt lat="42.82919" lon="0.22854">
        <ele>2121</ele>
        <time>2016-12-28T01:30:15Z</time>
      </trkpt>
      <trkpt lat="42.8285" lon="0.22534">
        <ele>2081</ele>
        <time>2016-12-28T01:32:15Z</time>
      </trkpt>
      <trkpt lat="42.82835" lon="0.2208">
        <ele>2039</ele>
        <time>2016-12-28T01:34:15Z</time>
      </trkpt>
      <trkpt lat="42.82791" lon="0.21961">
        <ele>2035</ele>
        <time>2016-12-28T01:36:15Z</time>
      </trkpt>
      <trkpt lat="42.82755" lon="0.21813">
        <ele>2028</ele>
        <time>2016-12-28T01:38:15Z</time>
      </trkpt>
      <trkpt lat="42.82769" lon="0.21752">
        <ele>2028</ele>
        <time>2016-12-28T01:40:15Z</time>
      </trkpt>
      <trkpt lat="42.82793" lon="0.21435">
        <ele>2028</ele>
        <time>2016-12-28T01:42:15Z</time>
      </trkpt>
      <trkpt lat="42.82804" lon="0.21308">
        <ele>2028</ele>
        <time>2016-12-28T01:44:15Z</time>
      </trkpt>
      <trkpt lat="42.82837" lon="0.21162">
        <ele>2023</ele>
        <time>2016-12-28T01:46:15Z</time>
      </trkpt>
      <trkpt lat="42.82874" lon="0.21099">
        <ele>2020</ele>
        <time>2016-12-28T01:48:15Z</time>
      </trkpt>
      <trkpt lat="42.82963" lon="0.20959">
        <ele>2005</ele>
        <time>2016-12-28T01:50:15Z</time>
      </trkpt>
      <trkpt lat="42.83087" lon="0.20847">
        <ele>1995</ele>
        <time>2016-12-28T01:52:15Z</time>
      </trkpt>
      <trkpt lat="42.83178" lon="0.20777">
        <ele>1995</ele>
        <time>2016-12-28T01:54:15Z</time>
      </trkpt>
      <trkpt lat="42.83242" lon="0.20726">
        <ele>1984</ele>
        <time>2016-12-28T01:56:15Z</time>
      </trkpt>
      <trkpt lat="42.83309" lon="0.20699">
        <ele>1985</ele>
        <time>2016-12-28T01:58:15Z</time>
      </trkpt>
      <trkpt lat="42.83354" lon="0.20703">
        <ele>1997</ele>
        <time>2016-12-28T02:00:15Z</time>
      </trkpt>
      <trkpt lat="42.83387" lon="0.2068">
        <ele>1990</ele>
        <time>2016-12-28T02:02:15Z</time>
      </trkpt>
      <trkpt lat="42.83473" lon="0.2061">
        <ele>1973</ele>
        <time>2016-12-28T02:04:15Z</time>
      </trkpt>
      <trkpt lat="42.83503" lon="0.20554">
        <ele>1954</ele>
        <time>2016-12-28T02:06:15Z</time>
      </trkpt>
      <trkpt lat="42.83569" lon="0.20576">
        <ele>1977</ele>
        <time>2016-12-28T02:08:15Z</time>
      </trkpt>
      <trkpt lat="42.83596" lon="0.20471">
        <ele>1946</ele>
        <time>2016-12-28T02:10:15Z</time>
      </trkpt>
      <trkpt lat="42.83686" lon="0.20376">
        <ele>1935</ele>
        <time>2016-12-28T02:12:15Z</time>
      </trkpt>
      <trkpt lat="42.8381" lon="0.20268">
        <ele>1917</ele>
        <time>2016-12-28T02:14:15Z</time>
      </trkpt>
      <trkpt lat="42.83863" lon="0.20226">
        <ele>1914</ele>
        <time>2016-12-28T02:16:15Z</time>
      </trkpt>
      <trkpt lat="42.83905" lon="0.20179">
        <ele>1908</ele>
        <time>2016-12-28T02:18:15Z</time>
      </trkpt>
      <trkpt lat="42.84009" lon="0.2009">
        <ele>1895</ele>
        <time>2016-12-28T02:20:15Z</time>
      </trkpt>
      <trkpt lat="42.84137" lon="0.20012">
        <ele>1897</ele>
        <time>2016-12-28T02:22:15Z</time>
      </trkpt>
      <trkpt lat="42.84191" lon="0.19909">
        <ele>1882</ele>
        <time>2016-12-28T02:24:15Z</time>
      </trkpt>
      <trkpt lat="42.84199" lon="0.19817">
        <ele>1854</ele>
        <time>2016-12-28T02:26:15Z</time>
      </trkpt>
      <trkpt lat="42.84232" lon="0.19779">
        <ele>1856</ele>
        <time>2016-12-28T02:28:15Z</time>
      </trkpt>
      <trkpt lat="42.84265" lon="0.19751">
        <ele>1857</ele>
        <time>2016-12-28T02:30:15Z</time>
      </trkpt>
      <trkpt lat="42.8433" lon="0.19666">
        <ele>1863</ele>
        <time>2016-12-28T02:32:15Z</time>
      </trkpt>
      <trkpt lat="42.84412" lon="0.19593">
        <ele>1873</ele>
        <time>2016-12-28T02:34:15Z</time>
      </trkpt>
      <trkpt lat="42.84461" lon="0.19569">
        <ele>1882</ele>
        <time>2016-12-28T02:36:15Z</time>
      </trkpt>
      <trkpt lat="42.84517" lon="0.19552">
        <ele>1890</ele>
        <time>2016-12-28T02:38:15Z</time>
      </trkpt>
      <trkpt lat="42.84615" lon="0.19548">
        <ele>1907</ele>
        <time>2016-12-28T02:40:15Z</time>
      </trkpt>
      <trkpt lat="42.84637" lon="0.19508">
        <ele>1901</ele>
        <time>2016-12-28T02:42:15Z</time>
      </trkpt>
      <trkpt lat="42.84684" lon="0.19479">
        <ele>1903</ele>
        <time>2016-12-28T02:44:15Z</time>
      </trkpt>
      <trkpt lat="42.84746" lon="0.19464">
        <ele>1912</ele>
        <time>2016-12-28T02:46:15Z</time>
      </trkpt>
      <trkpt lat="42.8483" lon="0.19489">
        <ele>1927</ele>
        <time>2016-12-28T02:48:15Z</time>
      </trkpt>
      <trkpt lat="42.84942" lon="0.19451">
        <ele>1937</ele>
        <time>2016-12-28T02:50:15Z</time>
      </trkpt>
      <trkpt lat="42.84998" lon="0.19455">
        <ele>1943</ele>
        <time>2016-12-28T02:52:15Z</time>
      </trkpt>
      <trkpt lat="42.85036" lon="0.19447">
        <ele>1946</ele>
        <time>2016-12-28T02:54:15Z</time>
      </trkpt>
      <trkpt lat="42.85074" lon="0.19449">
        <ele>1949</ele>
        <time>2016-12-28T02:56:15Z</time>
      </trkpt>
      <trkpt lat="42.85137" lon="0.19447">
        <ele>1956</ele>
        <time>2016-12-28T02:58:15Z</time>
      </trkpt>
      <trkpt lat="42.85189" lon="0.19463">
        <ele>1961</ele>
        <time>2016-12-28T03:00:15Z</time>
      </trkpt>
      <trkpt lat="42.8525" lon="0.19491">
        <ele>1967</ele>
        <time>2016-12-28T03:02:15Z</time>
      </trkpt>
      <trkpt lat="42.85303" lon="0.19456">
        <ele>1970</ele>
        <time>2016-12-28T03:04:15Z</time>
      </trkpt>
      <trkpt lat="42.85375" lon="0.19444">
        <ele>1976</ele>
        <time>2016-12-28T03:06:15Z</time>
      </trkpt>
      <trkpt lat="42.85446" lon="0.19411">
        <ele>1980</ele>
        <time>2016-12-28T03:08:15Z</time>
      </trkpt>
      <trkpt lat="42.85505" lon="0.19332">
        <ele>1980</ele>
        <time>2016-12-28T03:10:15Z</time>
      </trkpt>
      <trkpt lat="42.85566" lon="0.19327">
        <ele>1987</ele>
        <time>2016-12-28T03:12:15Z</time>
      </trkpt>
      <trkpt lat="42.85624" lon="0.19297">
        <ele>1996</ele>
        <time>2016-12-28T03:14:15Z</time>
      </trkpt>
      <trkpt lat="42.85685" lon="0.19219">
        <ele>2002</ele>
        <time>2016-12-28T03:16:15Z</time>
      </trkpt>
      <trkpt lat="42.85747" lon="0.19168">
        <ele>2004</ele>
        <time>2016-12-28T03:18:15Z</time>
      </trkpt>
      <trkpt lat="42.85815" lon="0.19122">
        <ele>2021</ele>
        <time>2016-12-28T03:20:15Z</time>
      </trkpt>
      <trkpt lat="42.85858" lon="0.1902">
        <ele>2036</ele>
        <time>2016-12-28T03:22:15Z</time>
      </trkpt>
      <trkpt lat="42.85904" lon="0.18921">
        <ele>2058</ele>
        <time>2016-12-28T03:24:15Z</time>
      </trkpt>
      <trkpt lat="42.85958" lon="0.18839">
        <ele>2075</ele>
        <time>2016-12-28T03:26:15Z</time>
      </trkpt>
      <trkpt lat="42.86013" lon="0.18773">
        <ele>2085</ele>
        <time>2016-12-28T03:28:15Z</time>
      </trkpt>
      <trkpt lat="42.86084" lon="0.18728">
        <ele>2102</ele>
        <time>2016-12-28T03:30:15Z</time>
      </trkpt>
      <trkpt lat="42.86112" lon="0.18659">
        <ele>2106</ele>
        <time>2016-12-28T03:32:15Z</time>
      </trkpt>
      <trkpt lat="42.86112" lon="0.18606">
        <ele>2110</ele>
        <time>2016-12-28T03:34:15Z</time>
      </trkpt>
      <trkpt lat="42.86094" lon="0.18534">
        <ele>2118</ele>
        <time>2016-12-28T03:36:15Z</time>
      </trkpt>
      <trkpt lat="42.86092" lon="0.18441">
        <ele>2135</ele>
        <time>2016-12-28T03:38:15Z</time>
      </trkpt>
      <trkpt lat="42.86118" lon="0.18347">
        <ele>2151</ele>
        <time>2016-12-28T03:40:15Z</time>
      </trkpt>
      <trkpt lat="42.86171" lon="0.18178">
        <ele>2177</ele>
        <time>2016-12-28T03:42:15Z</time>
      </trkpt>
      <trkpt lat="42.86212" lon="0.18111">
        <ele>2186</ele>
        <time>2016-12-28T03:44:15Z</time>
      </trkpt>
      <trkpt lat="42.8622" lon="0.18014">
        <ele>2204</ele>
        <time>2016-12-28T03:46:15Z</time>
      </trkpt>
      <trkpt lat="42.86219" lon="0.1792">
        <ele>2215</ele>
        <time>2016-12-28T03:48:15Z</time>
      </trkpt>
      <trkpt lat="42.8621" lon="0.17827">
        <ele>2223</ele>
        <time>2016-12-28T03:50:15Z</time>
      </trkpt>
      <trkpt lat="42.86204" lon="0.17746">
        <ele>2228</ele>
        <time>2016-12-28T03:52:15Z</time>
      </trkpt>
      <trkpt lat="42.86179" lon="0.17667">
        <ele>2232</ele>
        <time>2016-12-28T03:54:15Z</time>
      </trkpt>
      <trkpt lat="42.86206" lon="0.17555">
        <ele>2236</ele>
        <time>2016-12-28T03:56:15Z</time>
      </trkpt>
      <trkpt lat="42.86244" lon="0.17494">
        <ele>2237</ele>
        <time>2016-12-28T03:58:15Z</time>
      </trkpt>
      <trkpt lat="42.8627" lon="0.17411">
        <ele>2241</ele>
        <time>2016-12-28T04:00:15Z</time>
      </trkpt>
      <trkpt lat="42.86282" lon="0.17307">
        <ele>2252</ele>
        <time>2016-12-28T04:02:15Z</time>
      </trkpt>
      <trkpt lat="42.86325" lon="0.17241">
        <ele>2259</ele>
        <time>2016-12-28T04:04:15Z</time>
      </trkpt>
      <trkpt lat="42.86355" lon="0.17163">
        <ele>2270</ele>
        <time>2016-12-28T04:06:15Z</time>
      </trkpt>
      <trkpt lat="42.86376" lon="0.17053">
        <ele>2286</ele>
        <time>2016-12-28T04:08:15Z</time>
      </trkpt>
      <trkpt lat="42.8641" lon="0.16993">
        <ele>2302</ele>
        <time>2016-12-28T04:10:15Z</time>
      </trkpt>
      <trkpt lat="42.86476" lon="0.16939">
        <ele>2325</ele>
        <time>2016-12-28T04:12:15Z</time>
      </trkpt>
      <trkpt lat="42.86539" lon="0.16895">
        <ele>2345</ele>
        <time>2016-12-28T04:14:15Z</time>
      </trkpt>
      <trkpt lat="42.86589" lon="0.16868">
        <ele>2356</ele>
        <time>2016-12-28T04:16:15Z</time>
      </trkpt>
      <trkpt lat="42.86623" lon="0.16846">
        <ele>2365</ele>
        <time>2016-12-28T04:18:15Z</time>
      </trkpt>
      <trkpt lat="42.86668" lon="0.16761">
        <ele>2385</ele>
        <time>2016-12-28T04:20:15Z</time>
      </trkpt>
      <trkpt lat="42.8673" lon="0.16713">
        <ele>2405</ele>
        <time>2016-12-28T04:22:15Z</time>
      </trkpt>
      <trkpt lat="42.86771" lon="0.16666">
        <ele>2427</ele>
        <time>2016-12-28T04:24:15Z</time>
      </trkpt>
      <trkpt lat="42.86815" lon="0.16613">
        <ele>2456</ele>
        <time>2016-12-28T04:26:15Z</time>
      </trkpt>
      <trkpt lat="42.86853" lon="0.16568">
        <ele>2471</ele>
        <time>2016-12-28T04:28:15Z</time>
      </trkpt>
      <trkpt lat="42.86873" lon="0.165">
        <ele>2474</ele>
        <time>2016-12-28T04:30:15Z</time>
      </trkpt>
      <trkpt lat="42.86892" lon="0.1641">
        <ele>2464</ele>
        <time>2016-12-28T04:32:15Z</time>
      </trkpt>
      <trkpt lat="42.86899" lon="0.16318">
        <ele>2441</ele>
        <time>2016-12-28T04:34:15Z</time>
      </trkpt>
      <trkpt lat="42.86904" lon="0.16224">
        <ele>2415</ele>
        <time>2016-12-28T04:36:15Z</time>
      </trkpt>
      <trkpt lat="42.86941" lon="0.16155">
        <ele>2396</ele>
        <time>2016-12-28T04:38:15Z</time>
      </trkpt>
      <trkpt lat="42.86984" lon="0.16098">
        <ele>2381</ele>
        <time>2016-12-28T04:40:15Z</time>
      </trkpt>
      <trkpt lat="42.87019" lon="0.1603">
        <ele>2364</ele>
        <time>2016-12-28T04:42:15Z</time>
      </trkpt>
      <trkpt lat="42.8707" lon="0.15982">
        <ele>2349</ele>
        <time>2016-12-28T04:44:15Z</time>
      </trkpt>
      <trkpt lat="42.87102" lon="0.15911">
        <ele>2332</ele>
        <time>2016-12-28T04:46:15Z</time>
      </trkpt>
      <trkpt lat="42.87123" lon="0.15824">
        <ele>2315</ele>
        <time>2016-12-28T04:48:15Z</time>
      </trkpt>
      <trkpt lat="42.87159" lon="0.15756">
        <ele>2300</ele>
        <time>2016-12-28T04:50:15Z</time>
      </trkpt>
      <trkpt lat="42.87191" lon="0.15681">
        <ele>2284</ele>
        <time>2016-12-28T04:52:15Z</time>
      </trkpt>
      <trkpt lat="42.8721" lon="0.15595">
        <ele>2267</ele>
        <time>2016-12-28T04:54:15Z</time>
      </trkpt>
      <trkpt lat="42.87251" lon="0.15532">
        <ele>2253</ele>
        <time>2016-12-28T04:56:15Z</time>
      </trkpt>
      <trkpt lat="42.873" lon="0.15485">
        <ele>2230</ele>
        <time>2016-12-28T04:58:15Z</time>
      </trkpt>
      <trkpt lat="42.87335" lon="0.15426">
        <ele>2212</ele>
        <time>2016-12-28T05:00:15Z</time>
      </trkpt>
      <trkpt lat="42.87365" lon="0.1536">
        <ele>2193</ele>
        <time>2016-12-28T05:02:15Z</time>
      </trkpt>
      <trkpt lat="42.87404" lon="0.15301">
        <ele>2172</ele>
        <time>2016-12-28T05:04:15Z</time>
      </trkpt>
      <trkpt lat="42.87459" lon="0.15265">
        <ele>2159</ele>
        <time>2016-12-28T05:06:15Z</time>
      </trkpt>
      <trkpt lat="42.87508" lon="0.15192">
        <ele>2150</ele>
        <time>2016-12-28T05:08:15Z</time>
      </trkpt>
      <trkpt lat="42.87522" lon="0.15085">
        <ele>2145</ele>
        <time>2016-12-28T05:10:15Z</time>
      </trkpt>
      <trkpt lat="42.87522" lon="0.14993">
        <ele>2140</ele>
        <time>2016-12-28T05:12:15Z</time>
      </trkpt>
      <trkpt lat="42.87537" lon="0.14906">
        <ele>2133</ele>
        <time>2016-12-28T05:14:15Z</time>
      </trkpt>
      <trkpt lat="42.87581" lon="0.14805">
        <ele>2123</ele>
        <time>2016-12-28T05:16:15Z</time>
      </trkpt>
      <trkpt lat="42.87634" lon="0.14728">
        <ele>2109</ele>
        <time>2016-12-28T05:18:15Z</time>
      </trkpt>
      <trkpt lat="42.8767" lon="0.14647">
        <ele>2098</ele>
        <time>2016-12-28T05:20:15Z</time>
      </trkpt>
      <trkpt lat="42.87724" lon="0.14595">
        <ele>2088</ele>
        <time>2016-12-28T05:22:15Z</time>
      </trkpt>
      <trkpt lat="42.87797" lon="0.14595">
        <ele>2094</ele>
        <time>2016-12-28T05:24:15Z</time>
      </trkpt>
      <trkpt lat="42.87819" lon="0.14477">
        <ele>2084</ele>
        <time>2016-12-28T05:26:15Z</time>
      </trkpt>
      <trkpt lat="42.87848" lon="0.14363">
        <ele>2076</ele>
        <time>2016-12-28T05:28:15Z</time>
      </trkpt>
      <trkpt lat="42.87893" lon="0.1425">
        <ele>2068</ele>
        <time>2016-12-28T05:30:15Z</time>
      </trkpt>
      <trkpt lat="42.87925" lon="0.14132">
        <ele>2052</ele>
        <time>2016-12-28T05:32:15Z</time>
      </trkpt>
      <trkpt lat="42.87947" lon="0.14041">
        <ele>2040</ele>
        <time>2016-12-28T05:34:15Z</time>
      </trkpt>
      <trkpt lat="42.87964" lon="0.13936">
        <ele>2026</ele>
        <time>2016-12-28T05:36:15Z</time>
      </trkpt>
      <trkpt lat="42.87988" lon="0.13838">
        <ele>2009</ele>
        <time>2016-12-28T05:38:15Z</time>
      </trkpt>
      <trkpt lat="42.88035" lon="0.13784">
        <ele>2007</ele>
        <time>2016-12-28T05:40:15Z</time>
      </trkpt>
      <trkpt lat="42.88085" lon="0.13814">
        <ele>2023</ele>
        <time>2016-12-28T05:42:15Z</time>
      </trkpt>
      <trkpt lat="42.88106" lon="0.13683">
        <ele>1996</ele>
        <time>2016-12-28T05:44:15Z</time>
      </trkpt>
      <trkpt lat="42.88098" lon="0.13599">
        <ele>1983</ele>
        <time>2016-12-28T05:46:15Z</time>
      </trkpt>
      <trkpt lat="42.88121" lon="0.13503">
        <ele>1972</ele>
        <time>2016-12-28T05:48:15Z</time>
      </trkpt>
      <trkpt lat="42.88117" lon="0.13372">
        <ele>1959</ele>
        <time>2016-12-28T05:50:15Z</time>
      </trkpt>
      <trkpt lat="42.88117" lon="0.13263">
        <ele>1952</ele>
        <time>2016-12-28T05:52:15Z</time>
      </trkpt>
      <trkpt lat="42.88136" lon="0.13132">
        <ele>1945</ele>
        <time>2016-12-28T05:54:15Z</time>
      </trkpt>
      <trkpt lat="42.88147" lon="0.13016">
        <ele>1937</ele>
        <time>2016-12-28T05:56:15Z</time>
      </trkpt>
      <trkpt lat="42.8818" lon="0.12917">
        <ele>1930</ele>
        <time>2016-12-28T05:58:15Z</time>
      </trkpt>
      <trkpt lat="42.88197" lon="0.12782">
        <ele>1921</ele>
        <time>2016-12-28T06:00:15Z</time>
      </trkpt>
      <trkpt lat="42.88209" lon="0.12677">
        <ele>1912</ele>
        <time>2016-12-28T06:02:15Z</time>
      </trkpt>
      <trkpt lat="42.88198" lon="0.12544">
        <ele>1899</ele>
        <time>2016-12-28T06:04:15Z</time>
      </trkpt>
      <trkpt lat="42.88233" lon="0.1255">
        <ele>1903</ele>
        <time>2016-12-28T06:06:15Z</time>
      </trkpt>
      <trkpt lat="42.88266" lon="0.12475">
        <ele>1904</ele>
        <time>2016-12-28T06:08:15Z</time>
      </trkpt>
      <trkpt lat="42.88246" lon="0.12355">
        <ele>1891</ele>
        <time>2016-12-28T06:10:15Z</time>
      </trkpt>
      <trkpt lat="42.88241" lon="0.12235">
        <ele>1884</ele>
        <time>2016-12-28T06:12:15Z</time>
      </trkpt>
      <trkpt lat="42.88232" lon="0.12134">
        <ele>1875</ele>
        <time>2016-12-28T06:14:15Z</time>
      </trkpt>
      <trkpt lat="42.882" lon="0.12063">
        <ele>1867</ele>
        <time>2016-12-28T06:16:15Z</time>
      </trkpt>
      <trkpt lat="42.88172" lon="0.11994">
        <ele>1858</ele>
        <time>2016-12-28T06:18:15Z</time>
      </trkpt>
      <trkpt lat="42.88212" lon="0.11942">
        <ele>1848</ele>
        <time>2016-12-28T06:20:15Z</time>
      </trkpt>
      <trkpt lat="42.88223" lon="0.11875">
        <ele>1838</ele>
        <time>2016-12-28T06:22:15Z</time>
      </trkpt>
      <trkpt lat="42.88233" lon="0.11794">
        <ele>1828</ele>
        <time>2016-12-28T06:24:15Z</time>
      </trkpt>
      <trkpt lat="42.8826" lon="0.11691">
        <ele>1821</ele>
        <time>2016-12-28T06:26:15Z</time>
      </trkpt>
      <trkpt lat="42.88263" lon="0.11596">
        <ele>1806</ele>
        <time>2016-12-28T06:28:15Z</time>
      </trkpt>
      <trkpt lat="42.88257" lon="0.11503">
        <ele>1790</ele>
        <time>2016-12-28T06:30:15Z</time>
      </trkpt>
      <trkpt lat="42.88281" lon="0.11408">
        <ele>1783</ele>
        <time>2016-12-28T06:32:15Z</time>
      </trkpt>
      <trkpt lat="42.88291" lon="0.11304">
        <ele>1772</ele>
        <time>2016-12-28T06:34:15Z</time>
      </trkpt>
      <trkpt lat="42.88308" lon="0.11217">
        <ele>1761</ele>
        <time>2016-12-28T06:36:15Z</time>
      </trkpt>
      <trkpt lat="42.88339" lon="0.11154">
        <ele>1753</ele>
        <time>2016-12-28T06:38:15Z</time>
      </trkpt>
      <trkpt lat="42.88391" lon="0.11161">
        <ele>1760</ele>
        <time>2016-12-28T06:40:15Z</time>
      </trkpt>
      <trkpt lat="42.88443" lon="0.11061">
        <ele>1748</ele>
        <time>2016-12-28T06:42:15Z</time>
      </trkpt>
      <trkpt lat="42.885" lon="0.11001">
        <ele>1741</ele>
        <time>2016-12-28T06:44:15Z</time>
      </trkpt>
      <trkpt lat="42.88542" lon="0.10959">
        <ele>1732</ele>
        <time>2016-12-28T06:46:15Z</time>
      </trkpt>
      <trkpt lat="42.88612" lon="0.10886">
        <ele>1717</ele>
        <time>2016-12-28T06:48:15Z</time>
      </trkpt>
      <trkpt lat="42.8865" lon="0.10888">
        <ele>1722</ele>
        <time>2016-12-28T06:50:15Z</time>
      </trkpt>
      <trkpt lat="42.88625" lon="0.10843">
        <ele>1705</ele>
        <time>2016-12-28T06:52:15Z</time>
      </trkpt>
      <trkpt lat="42.88624" lon="0.10813">
        <ele>1698</ele>
        <time>2016-12-28T06:54:15Z</time>
      </trkpt>
      <trkpt lat="42.88696" lon="0.10828">
        <ele>1708</ele>
        <time>2016-12-28T06:56:15Z</time>
      </trkpt>
      <trkpt lat="42.88762" lon="0.10832">
        <ele>1715</ele>
        <time>2016-12-28T06:58:15Z</time>
      </trkpt>
      <trkpt lat="42.88831" lon="0.10808">
        <ele>1709</ele>
        <time>2016-12-28T07:00:15Z</time>
      </trkpt>
      <trkpt lat="42.88895" lon="0.10775">
        <ele>1692</ele>
        <time>2016-12-28T07:02:15Z</time>
      </trkpt>
      <trkpt lat="42.88955" lon="0.10739">
        <ele>1672</ele>
        <time>2016-12-28T07:04:15Z</time>
      </trkpt>
      <trkpt lat="42.89045" lon="0.10751">
        <ele>1661</ele>
        <time>2016-12-28T07:06:15Z</time>
      </trkpt>
      <trkpt lat="42.8908" lon="0.10713">
        <ele>1640</ele>
        <time>2016-12-28T07:08:15Z</time>
      </trkpt>
      <trkpt lat="42.89168" lon="0.107">
        <ele>1615</ele>
        <time>2016-12-28T07:10:15Z</time>
      </trkpt>
      <trkpt lat="42.8936" lon="0.10656">
        <ele>1590</ele>
        <time>2016-12-28T07:12:15Z</time>
      </trkpt>
      <trkpt lat="42.8947" lon="0.10676">
        <ele>1588</ele>
        <time>2016-12-28T07:14:15Z</time>
      </trkpt>
      <trkpt lat="42.89517" lon="0.10659">
        <ele>1580</ele>
        <time>2016-12-28T07:16:15Z</time>
      </trkpt>
      <trkpt lat="42.89568" lon="0.10633">
        <ele>1570</ele>
        <time>2016-12-28T07:18:15Z</time>
      </trkpt>
      <trkpt lat="42.89645" lon="0.10636">
        <ele>1560</ele>
        <time>2016-12-28T07:20:15Z</time>
      </trkpt>
      <trkpt lat="42.89678" lon="0.1061">
        <ele>1548</ele>
        <time>2016-12-28T07:22:15Z</time>
      </trkpt>
      <trkpt lat="42.89763" lon="0.10601">
        <ele>1536</ele>
        <time>2016-12-28T07:24:15Z</time>
      </trkpt>
      <trkpt lat="42.89814" lon="0.10571">
        <ele>1525</ele>
        <time>2016-12-28T07:26:15Z</time>
      </trkpt>
      <trkpt lat="42.89878" lon="0.10526">
        <ele>1507</ele>
        <time>2016-12-28T07:28:15Z</time>
      </trkpt>
      <trkpt lat="42.89949" lon="0.10474">
        <ele>1493</ele>
        <time>2016-12-28T07:30:15Z</time>
      </trkpt>
      <trkpt lat="42.9004" lon="0.10431">
        <ele>1483</ele>
        <time>2016-12-28T07:32:15Z</time>
      </trkpt>
      <trkpt lat="42.90114" lon="0.10398">
        <ele>1481</ele>
        <time>2016-12-28T07:34:15Z</time>
      </trkpt>
      <trkpt lat="42.90182" lon="0.10343">
        <ele>1476</ele>
        <time>2016-12-28T07:36:15Z</time>
      </trkpt>
      <trkpt lat="42.90258" lon="0.10322">
        <ele>1472</ele>
        <time>2016-12-28T07:38:15Z</time>
      </trkpt>
      <trkpt lat="42.90325" lon="0.10241">
        <ele>1460</ele>
        <time>2016-12-28T07:40:15Z</time>
      </trkpt>
      <trkpt lat="42.90415" lon="0.10366">
        <ele>1479</ele>
        <time>2016-12-28T07:42:15Z</time>
      </trkpt>
      <trkpt lat="42.905" lon="0.10282">
        <ele>1483</ele>
        <time>2016-12-28T07:44:15Z</time>
      </trkpt>
      <trkpt lat="42.90477" lon="0.1011">
        <ele>1471</ele>
        <time>2016-12-28T07:46:15Z</time>
      </trkpt>
      <trkpt lat="42.90684" lon="0.10132">
        <ele>1558</ele>
        <time>2016-12-28T07:48:15Z</time>
      </trkpt>
      <trkpt lat="42.9066" lon="0.10346">
        <ele>1571</ele>
        <time>2016-12-28T07:50:15Z</time>
      </trkpt>
      <trkpt lat="42.9065" lon="0.10646">
        <ele>1580</ele>
        <time>2016-12-28T07:52:15Z</time>
      </trkpt>
      <trkpt lat="42.90771" lon="0.11149">
        <ele>1646</ele>
        <time>2016-12-28T07:54:15Z</time>
      </trkpt>
      <trkpt lat="42.90888" lon="0.11376">
        <ele>1675</ele>
        <time>2016-12-28T07:56:15Z</time>
      </trkpt>
      <trkpt lat="42.90932" lon="0.11457">
        <ele>1682</ele>
        <time>2016-12-28T07:58:15Z</time>
      </trkpt>
      <trkpt lat="42.90982" lon="0.11461">
        <ele>1697</ele>
        <time>2016-12-28T08:00:15Z</time>
      </trkpt>
      <trkpt lat="42.90957" lon="0.11545">
        <ele>1696</ele>
        <time>2016-12-28T08:02:15Z</time>
      </trkpt>
      <trkpt lat="42.91014" lon="0.11692">
        <ele>1726</ele>
        <time>2016-12-28T08:04:15Z</time>
      </trkpt>
      <trkpt lat="42.91069" lon="0.11849">
        <ele>1752</ele>
        <time>2016-12-28T08:06:15Z</time>
      </trkpt>
      <trkpt lat="42.90954" lon="0.11863">
        <ele>1734</ele>
        <time>2016-12-28T08:08:15Z</time>
      </trkpt>
      <trkpt lat="42.90922" lon="0.11907">
        <ele>1740</ele>
        <time>2016-12-28T08:10:15Z</time>
      </trkpt>
      <trkpt lat="42.9092" lon="0.12032">
        <ele>1759</ele>
        <time>2016-12-28T08:12:15Z</time>
      </trkpt>
      <trkpt lat="42.90915" lon="0.12246">
        <ele>1784</ele>
        <time>2016-12-28T08:14:15Z</time>
      </trkpt>
      <trkpt lat="42.90932" lon="0.12646">
        <ele>1820</ele>
        <time>2016-12-28T08:16:15Z</time>
      </trkpt>
      <trkpt lat="42.90947" lon="0.1282">
        <ele>1836</ele>
        <time>2016-12-28T08:18:15Z</time>
      </trkpt>
      <trkpt lat="42.90974" lon="0.13029">
        <ele>1864</ele>
        <time>2016-12-28T08:20:15Z</time>
      </trkpt>
      <trkpt lat="42.91007" lon="0.13193">
        <ele>1879</ele>
        <time>2016-12-28T08:22:15Z</time>
      </trkpt>
      <trkpt lat="42.9108" lon="0.13279">
        <ele>1895</ele>
        <time>2016-12-28T08:24:15Z</time>
      </trkpt>
      <trkpt lat="42.91141" lon="0.13393">
        <ele>1886</ele>
        <time>2016-12-28T08:26:15Z</time>
      </trkpt>
      <trkpt lat="42.9122" lon="0.13411">
        <ele>1900</ele>
        <time>2016-12-28T08:28:15Z</time>
      </trkpt>
      <trkpt lat="42.91265" lon="0.13394">
        <ele>1912</ele>
        <time>2016-12-28T08:30:15Z</time>
      </trkpt>
      <trkpt lat="42.91291" lon="0.13277">
        <ele>1936</ele>
        <time>2016-12-28T08:32:15Z</time>
      </trkpt>
      <trkpt lat="42.91315" lon="0.13117">
        <ele>1964</ele>
        <time>2016-12-28T08:34:15Z</time>
      </trkpt>
      <trkpt lat="42.91335" lon="0.12976">
        <ele>1989</ele>
        <time>2016-12-28T08:36:15Z</time>
      </trkpt>
      <trkpt lat="42.91339" lon="0.12832">
        <ele>2002</ele>
        <time>2016-12-28T08:38:15Z</time>
      </trkpt>
      <trkpt lat="42.91354" lon="0.12693">
        <ele>2017</ele>
        <time>2016-12-28T08:40:15Z</time>
      </trkpt>
      <trkpt lat="42.91372" lon="0.12794">
        <ele>2027</ele>
        <time>2016-12-28T08:42:15Z</time>
      </trkpt>
      <trkpt lat="42.91418" lon="0.12904">
        <ele>2046</ele>
        <time>2016-12-28T08:44:15Z</time>
      </trkpt>
      <trkpt lat="42.91563" lon="0.13026">
        <ele>2097</ele>
        <time>2016-12-28T08:46:15Z</time>
      </trkpt>
      <trkpt lat="42.91661" lon="0.13092">
        <ele>2114</ele>
        <time>2016-12-28T08:48:15Z</time>
      </trkpt>
      <trkpt lat="42.91747" lon="0.13176">
        <ele>2109</ele>
        <time>2016-12-28T08:50:15Z</time>
      </trkpt>
      <trkpt lat="42.91734" lon="0.13235">
        <ele>2092</ele>
        <time>2016-12-28T08:52:15Z</time>
      </trkpt>
      <trkpt lat="42.91812" lon="0.13123">
        <ele>2139</ele>
        <time>2016-12-28T08:54:15Z</time>
      </trkpt>
      <trkpt lat="42.91816" lon="0.13185">
        <ele>2122</ele>
        <time>2016-12-28T08:56:15Z</time>
      </trkpt>
      <trkpt lat="42.9191" lon="0.13188">
        <ele>2136</ele>
        <time>2016-12-28T08:58:15Z</time>
      </trkpt>
      <trkpt lat="42.91954" lon="0.13233">
        <ele>2135</ele>
        <time>2016-12-28T09:00:15Z</time>
      </trkpt>
      <trkpt lat="42.91972" lon="0.13208">
        <ele>2143</ele>
        <time>2016-12-28T09:02:15Z</time>
      </trkpt>
      <trkpt lat="42.92046" lon="0.13217">
        <ele>2160</ele>
        <time>2016-12-28T09:04:15Z</time>
      </trkpt>
      <trkpt lat="42.92137" lon="0.13263">
        <ele>2181</ele>
        <time>2016-12-28T09:06:15Z</time>
      </trkpt>
      <trkpt lat="42.92255" lon="0.13275">
        <ele>2203</ele>
        <time>2016-12-28T09:08:15Z</time>
      </trkpt>
      <trkpt lat="42.92369" lon="0.13321">
        <ele>2223</ele>
        <time>2016-12-28T09:10:15Z</time>
      </trkpt>
      <trkpt lat="42.92495" lon="0.1343">
        <ele>2248</ele>
        <time>2016-12-28T09:12:15Z</time>
      </trkpt>
      <trkpt lat="42.92553" lon="0.13469">
        <ele>2261</ele>
        <time>2016-12-28T09:14:15Z</time>
      </trkpt>
      <trkpt lat="42.92553" lon="0.13495">
        <ele>2267</ele>
        <time>2016-12-28T09:16:15Z</time>
      </trkpt>
      <trkpt lat="42.92562" lon="0.1344">
        <ele>2255</ele>
        <time>2016-12-28T09:18:15Z</time>
      </trkpt>
      <trkpt lat="42.92693" lon="0.13636">
        <ele>2286</ele>
        <time>2016-12-28T09:20:15Z</time>
      </trkpt>
      <trkpt lat="42.92695" lon="0.13674">
        <ele>2295</ele>
        <time>2016-12-28T09:22:15Z</time>
      </trkpt>
      <trkpt lat="42.92626" lon="0.13725">
        <ele>2324</ele>
        <time>2016-12-28T09:24:15Z</time>
      </trkpt>
      <trkpt lat="42.92745" lon="0.13787">
        <ele>2339</ele>
        <time>2016-12-28T09:26:15Z</time>
      </trkpt>
      <trkpt lat="42.92881" lon="0.13861">
        <ele>2369</ele>
        <time>2016-12-28T09:28:15Z</time>
      </trkpt>
      <trkpt lat="42.93004" lon="0.13835">
        <ele>2365</ele>
        <time>2016-12-28T09:30:15Z</time>
      </trkpt>
      <trkpt lat="42.93036" lon="0.13836">
        <ele>2365</ele>
        <time>2016-12-28T09:32:15Z</time>
      </trkpt>
      <trkpt lat="42.9304" lon="0.13859">
        <ele>2367</ele>
        <time>2016-12-28T09:34:15Z</time>
      </trkpt>
      <trkpt lat="42.93106" lon="0.13865">
        <ele>2373</ele>
        <time>2016-12-28T09:36:15Z</time>
      </trkpt>
      <trkpt lat="42.93142" lon="0.13968">
        <ele>2393</ele>
        <time>2016-12-28T09:38:15Z</time>
      </trkpt>
      <trkpt lat="42.93169" lon="0.14058">
        <ele>2414</ele>
        <time>2016-12-28T09:40:15Z</time>
      </trkpt>
      <trkpt lat="42.93191" lon="0.14146">
        <ele>2443</ele>
        <time>2016-12-28T09:42:15Z</time>
      </trkpt>
      <trkpt lat="42.93196" lon="0.14201">
        <ele>2453</ele>
        <time>2016-12-28T09:44:15Z</time>
      </trkpt>
      <trkpt lat="42.9318" lon="0.14263">
        <ele>2443</ele>
        <time>2016-12-28T09:46:15Z</time>
      </trkpt>
      <trkpt lat="42.93178" lon="0.14303">
        <ele>2442</ele>
        <time>2016-12-28T09:48:15Z</time>
      </trkpt>
      <trkpt lat="42.93198" lon="0.14299">
        <ele>2459</ele>
        <time>2016-12-28T09:50:15Z</time>
      </trkpt>
      <trkpt lat="42.93204" lon="0.14259">
        <ele>2464</ele>
        <time>2016-12-28T09:52:15Z</time>
      </trkpt>
      <trkpt lat="42.93224" lon="0.14151">
        <ele>2473</ele>
        <time>2016-12-28T09:54:15Z</time>
      </trkpt>
      <trkpt lat="42.93222" lon="0.1401">
        <ele>2455</ele>
        <time>2016-12-28T09:56:15Z</time>
      </trkpt>
      <trkpt lat="42.93268" lon="0.1385">
        <ele>2475</ele>
        <time>2016-12-28T09:58:15Z</time>
      </trkpt>
      <trkpt lat="42.93285" lon="0.13797">
        <ele>2486</ele>
        <time>2016-12-28T10:00:15Z</time>
      </trkpt>
      <trkpt lat="42.93281" lon="0.13751">
        <ele>2476</ele>
        <time>2016-12-28T10:02:15Z</time>
      </trkpt>
      <trkpt lat="42.93299" lon="0.13738">
        <ele>2494</ele>
        <time>2016-12-28T10:04:15Z</time>
      </trkpt>
      <trkpt lat="42.93298" lon="0.13767">
        <ele>2496</ele>
        <time>2016-12-28T10:06:15Z</time>
      </trkpt>
      <trkpt lat="42.93305" lon="0.13799">
        <ele>2507</ele>
        <time>2016-12-28T10:08:15Z</time>
      </trkpt>
      <trkpt lat="42.93308" lon="0.13901">
        <ele>2523</ele>
        <time>2016-12-28T10:10:15Z</time>
      </trkpt>
      <trkpt lat="42.93309" lon="0.13998">
        <ele>2536</ele>
        <time>2016-12-28T10:12:15Z</time>
      </trkpt>
      <trkpt lat="42.93302" lon="0.1409">
        <ele>2540</ele>
        <time>2016-12-28T10:14:15Z</time>
      </trkpt>
      <trkpt lat="42.93342" lon="0.1396">
        <ele>2562</ele>
        <time>2016-12-28T10:16:15Z</time>
      </trkpt>
      <trkpt lat="42.93362" lon="0.13852">
        <ele>2566</ele>
        <time>2016-12-28T10:18:15Z</time>
      </trkpt>
      <trkpt lat="42.93368" lon="0.13724">
        <ele>2560</ele>
        <time>2016-12-28T10:20:15Z</time>
      </trkpt>
      <trkpt lat="42.93392" lon="0.13662">
        <ele>2579</ele>
        <time>2016-12-28T10:22:15Z</time>
      </trkpt>
      <trkpt lat="42.93397" lon="0.13609">
        <ele>2582</ele>
        <time>2016-12-28T10:24:15Z</time>
      </trkpt>
      <trkpt lat="42.934" lon="0.13524">
        <ele>2581</ele>
        <time>2016-12-28T10:26:15Z</time>
      </trkpt>
      <trkpt lat="42.93392" lon="0.13435">
        <ele>2568</ele>
        <time>2016-12-28T10:28:15Z</time>
      </trkpt>
      <trkpt lat="42.93414" lon="0.13431">
        <ele>2593</ele>
        <time>2016-12-28T10:30:15Z</time>
      </trkpt>
      <trkpt lat="42.93432" lon="0.13556">
        <ele>2609</ele>
        <time>2016-12-28T10:32:15Z</time>
      </trkpt>
      <trkpt lat="42.93418" lon="0.13627">
        <ele>2603</ele>
        <time>2016-12-28T10:34:15Z</time>
      </trkpt>
      <trkpt lat="42.93423" lon="0.13669">
        <ele>2607</ele>
        <time>2016-12-28T10:36:15Z</time>
      </trkpt>
      <trkpt lat="42.93451" lon="0.13708">
        <ele>2623</ele>
        <time>2016-12-28T10:38:15Z</time>
      </trkpt>
      <trkpt lat="42.93469" lon="0.13692">
        <ele>2632</ele>
        <time>2016-12-28T10:40:15Z</time>
      </trkpt>
      <trkpt lat="42.93441" lon="0.13657">
        <ele>2616</ele>
        <time>2016-12-28T10:42:15Z</time>
      </trkpt>
      <trkpt lat="42.93447" lon="0.13607">
        <ele>2619</ele>
        <time>2016-12-28T10:44:15Z</time>
      </trkpt>
      <trkpt lat="42.93464" lon="0.13546">
        <ele>2627</ele>
        <time>2016-12-28T10:46:15Z</time>
      </trkpt>
      <trkpt lat="42.93523" lon="0.13507">
        <ele>2641</ele>
        <time>2016-12-28T10:48:15Z</time>
      </trkpt>
      <trkpt lat="42.93553" lon="0.13503">
        <ele>2632</ele>
        <time>2016-12-28T10:50:15Z</time>
      </trkpt>
      <trkpt lat="42.93565" lon="0.13539">
        <ele>2637</ele>
        <time>2016-12-28T10:52:15Z</time>
      </trkpt>
      <trkpt lat="42.93568" lon="0.13609">
        <ele>2653</ele>
        <time>2016-12-28T10:54:15Z</time>
      </trkpt>
      <trkpt lat="42.93549" lon="0.13676">
        <ele>2662</ele>
        <time>2016-12-28T10:56:15Z</time>
      </trkpt>
      <trkpt lat="42.93551" lon="0.13708">
        <ele>2666</ele>
        <time>2016-12-28T10:58:15Z</time>
      </trkpt>
      <trkpt lat="42.93591" lon="0.13667">
        <ele>2665</ele>
        <time>2016-12-28T11:00:15Z</time>
      </trkpt>
      <trkpt lat="42.93636" lon="0.13632">
        <ele>2630</ele>
        <time>2016-12-28T11:02:15Z</time>
      </trkpt>
      <trkpt lat="42.93628" lon="0.13723">
        <ele>2667</ele>
        <time>2016-12-28T11:04:15Z</time>
      </trkpt>
      <trkpt lat="42.93634" lon="0.13808">
        <ele>2700</ele>
        <time>2016-12-28T11:06:15Z</time>
      </trkpt>
      <trkpt lat="42.93673" lon="0.13773">
        <ele>2682</ele>
        <time>2016-12-28T11:08:15Z</time>
      </trkpt>
      <trkpt lat="42.93657" lon="0.13841">
        <ele>2719</ele>
        <time>2016-12-28T11:10:15Z</time>
      </trkpt>
      <trkpt lat="42.93685" lon="0.1382">
        <ele>2705</ele>
        <time>2016-12-28T11:12:15Z</time>
      </trkpt>
      <trkpt lat="42.93694" lon="0.13812">
        <ele>2698</ele>
        <time>2016-12-28T11:14:15Z</time>
      </trkpt>
      <trkpt lat="42.9367" lon="0.13886">
        <ele>2744</ele>
        <time>2016-12-28T11:16:15Z</time>
      </trkpt>
      <trkpt lat="42.93662" lon="0.13965">
        <ele>2781</ele>
        <time>2016-12-28T11:18:15Z</time>
      </trkpt>
      <trkpt lat="42.93713" lon="0.13923">
        <ele>2762</ele>
        <time>2016-12-28T11:20:15Z</time>
      </trkpt>
      <trkpt lat="42.93693" lon="0.14011">
        <ele>2807</ele>
        <time>2016-12-28T11:22:15Z</time>
      </trkpt>
      <trkpt lat="42.93718" lon="0.13992">
        <ele>2800</ele>
        <time>2016-12-28T11:24:15Z</time>
      </trkpt>
      <trkpt lat="42.93698" lon="0.14071">
        <ele>2831</ele>
        <time>2016-12-28T11:26:15Z</time>
      </trkpt>
      <trkpt lat="42.93686" lon="0.14134">
        <ele>2834</ele>
        <time>2016-12-28T11:28:15Z</time>
      </trkpt>
      <trkpt lat="42.93675" lon="0.14174">
        <ele>2833</ele>
        <time>2016-12-28T11:30:15Z</time>
      </trkpt>
      <trkpt lat="42.93689" lon="0.14138">
        <ele>2834</ele>
        <time>2016-12-28T11:32:15Z</time>
      </trkpt>
      <trkpt lat="42.93702" lon="0.14071">
        <ele>2831</ele>
        <time>2016-12-28T11:34:15Z</time>
      </trkpt>
      <trkpt lat="42.93722" lon="0.13992">
        <ele>2800</ele>
        <time>2016-12-28T11:36:15Z</time>
      </trkpt>
      <trkpt lat="42.93697" lon="0.1401">
        <ele>2807</ele>
        <time>2016-12-28T11:38:15Z</time>
      </trkpt>
      <trkpt lat="42.93708" lon="0.13926">
        <ele>2764</ele>
        <time>2016-12-28T11:40:15Z</time>
      </trkpt>
      <trkpt lat="42.9366" lon="0.13971">
        <ele>2782</ele>
        <time>2016-12-28T11:42:15Z</time>
      </trkpt>
      <trkpt lat="42.93673" lon="0.13887">
        <ele>2744</ele>
        <time>2016-12-28T11:44:15Z</time>
      </trkpt>
      <trkpt lat="42.93696" lon="0.13803">
        <ele>2692</ele>
        <time>2016-12-28T11:46:15Z</time>
      </trkpt>
      <trkpt lat="42.9366" lon="0.13839">
        <ele>2718</ele>
        <time>2016-12-28T11:48:15Z</time>
      </trkpt>
      <trkpt lat="42.93675" lon="0.13776">
        <ele>2683</ele>
        <time>2016-12-28T11:50:15Z</time>
      </trkpt>
      <trkpt lat="42.93635" lon="0.13799">
        <ele>2696</ele>
        <time>2016-12-28T11:52:15Z</time>
      </trkpt>
      <trkpt lat="42.93631" lon="0.1373">
        <ele>2669</ele>
        <time>2016-12-28T11:54:15Z</time>
      </trkpt>
      <trkpt lat="42.93639" lon="0.13628">
        <ele>2627</ele>
        <time>2016-12-28T11:56:15Z</time>
      </trkpt>
      <trkpt lat="42.93584" lon="0.13674">
        <ele>2670</ele>
        <time>2016-12-28T11:58:15Z</time>
      </trkpt>
      <trkpt lat="42.93548" lon="0.1371">
        <ele>2665</ele>
        <time>2016-12-28T12:00:15Z</time>
      </trkpt>
      <trkpt lat="42.93546" lon="0.13677">
        <ele>2661</ele>
        <time>2016-12-28T12:02:15Z</time>
      </trkpt>
      <trkpt lat="42.93573" lon="0.13609">
        <ele>2653</ele>
        <time>2016-12-28T12:04:15Z</time>
      </trkpt>
      <trkpt lat="42.93565" lon="0.13539">
        <ele>2637</ele>
        <time>2016-12-28T12:06:15Z</time>
      </trkpt>
      <trkpt lat="42.93557" lon="0.13508">
        <ele>2632</ele>
        <time>2016-12-28T12:08:15Z</time>
      </trkpt>
      <trkpt lat="42.93532" lon="0.13511">
        <ele>2639</ele>
        <time>2016-12-28T12:10:15Z</time>
      </trkpt>
      <trkpt lat="42.93497" lon="0.13523">
        <ele>2646</ele>
        <time>2016-12-28T12:12:15Z</time>
      </trkpt>
      <trkpt lat="42.93468" lon="0.13545">
        <ele>2629</ele>
        <time>2016-12-28T12:14:15Z</time>
      </trkpt>
      <trkpt lat="42.93453" lon="0.1358">
        <ele>2622</ele>
        <time>2016-12-28T12:16:15Z</time>
      </trkpt>
      <trkpt lat="42.93441" lon="0.13657">
        <ele>2616</ele>
        <time>2016-12-28T12:18:15Z</time>
      </trkpt>
      <trkpt lat="42.93473" lon="0.13683">
        <ele>2634</ele>
        <time>2016-12-28T12:20:15Z</time>
      </trkpt>
      <trkpt lat="42.93458" lon="0.13705">
        <ele>2627</ele>
        <time>2016-12-28T12:22:15Z</time>
      </trkpt>
      <trkpt lat="42.93423" lon="0.13669">
        <ele>2607</ele>
        <time>2016-12-28T12:24:15Z</time>
      </trkpt>
      <trkpt lat="42.93418" lon="0.13627">
        <ele>2603</ele>
        <time>2016-12-28T12:26:15Z</time>
      </trkpt>
      <trkpt lat="42.93434" lon="0.13547">
        <ele>2610</ele>
        <time>2016-12-28T12:28:15Z</time>
      </trkpt>
      <trkpt lat="42.93419" lon="0.13459">
        <ele>2598</ele>
        <time>2016-12-28T12:30:15Z</time>
      </trkpt>
      <trkpt lat="42.93414" lon="0.13431">
        <ele>2593</ele>
        <time>2016-12-28T12:32:15Z</time>
      </trkpt>
      <trkpt lat="42.93392" lon="0.13435">
        <ele>2568</ele>
        <time>2016-12-28T12:34:15Z</time>
      </trkpt>
      <trkpt lat="42.934" lon="0.13524">
        <ele>2581</ele>
        <time>2016-12-28T12:36:15Z</time>
      </trkpt>
      <trkpt lat="42.93393" lon="0.13631">
        <ele>2579</ele>
        <time>2016-12-28T12:38:15Z</time>
      </trkpt>
      <trkpt lat="42.93368" lon="0.13724">
        <ele>2560</ele>
        <time>2016-12-28T12:40:15Z</time>
      </trkpt>
      <trkpt lat="42.93362" lon="0.13852">
        <ele>2566</ele>
        <time>2016-12-28T12:42:15Z</time>
      </trkpt>
      <trkpt lat="42.93346" lon="0.13948">
        <ele>2564</ele>
        <time>2016-12-28T12:44:15Z</time>
      </trkpt>
      <trkpt lat="42.93302" lon="0.1409">
        <ele>2540</ele>
        <time>2016-12-28T12:46:15Z</time>
      </trkpt>
      <trkpt lat="42.93309" lon="0.13998">
        <ele>2536</ele>
        <time>2016-12-28T12:48:15Z</time>
      </trkpt>
      <trkpt lat="42.9331" lon="0.13904">
        <ele>2526</ele>
        <time>2016-12-28T12:50:15Z</time>
      </trkpt>
      <trkpt lat="42.93307" lon="0.13805">
        <ele>2510</ele>
        <time>2016-12-28T12:52:15Z</time>
      </trkpt>
      <trkpt lat="42.93297" lon="0.13762">
        <ele>2495</ele>
        <time>2016-12-28T12:54:15Z</time>
      </trkpt>
      <trkpt lat="42.93299" lon="0.13738">
        <ele>2494</ele>
        <time>2016-12-28T12:56:15Z</time>
      </trkpt>
      <trkpt lat="42.93283" lon="0.13742">
        <ele>2477</ele>
        <time>2016-12-28T12:58:15Z</time>
      </trkpt>
      <trkpt lat="42.93285" lon="0.13806">
        <ele>2487</ele>
        <time>2016-12-28T13:00:15Z</time>
      </trkpt>
      <trkpt lat="42.93268" lon="0.1385">
        <ele>2475</ele>
        <time>2016-12-28T13:02:15Z</time>
      </trkpt>
      <trkpt lat="42.93222" lon="0.1401">
        <ele>2455</ele>
        <time>2016-12-28T13:04:15Z</time>
      </trkpt>
      <trkpt lat="42.93224" lon="0.14151">
        <ele>2473</ele>
        <time>2016-12-28T13:06:15Z</time>
      </trkpt>
      <trkpt lat="42.93208" lon="0.14249">
        <ele>2468</ele>
        <time>2016-12-28T13:08:15Z</time>
      </trkpt>
      <trkpt lat="42.93198" lon="0.14299">
        <ele>2459</ele>
        <time>2016-12-28T13:10:15Z</time>
      </trkpt>
      <trkpt lat="42.93183" lon="0.14302">
        <ele>2446</ele>
        <time>2016-12-28T13:12:15Z</time>
      </trkpt>
      <trkpt lat="42.9318" lon="0.14263">
        <ele>2443</ele>
        <time>2016-12-28T13:14:15Z</time>
      </trkpt>
      <trkpt lat="42.93196" lon="0.14201">
        <ele>2453</ele>
        <time>2016-12-28T13:16:15Z</time>
      </trkpt>
      <trkpt lat="42.93178" lon="0.14089">
        <ele>2425</ele>
        <time>2016-12-28T13:18:15Z</time>
      </trkpt>
      <trkpt lat="42.93145" lon="0.13983">
        <ele>2395</ele>
        <time>2016-12-28T13:20:15Z</time>
      </trkpt>
      <trkpt lat="42.93105" lon="0.1387">
        <ele>2373</ele>
        <time>2016-12-28T13:22:15Z</time>
      </trkpt>
      <trkpt lat="42.93074" lon="0.13869">
        <ele>2367</ele>
        <time>2016-12-28T13:24:15Z</time>
      </trkpt>
      <trkpt lat="42.9304" lon="0.13862">
        <ele>2367</ele>
        <time>2016-12-28T13:26:15Z</time>
      </trkpt>
      <trkpt lat="42.93049" lon="0.13901">
        <ele>2370</ele>
        <time>2016-12-28T13:28:15Z</time>
      </trkpt>
      <trkpt lat="42.93054" lon="0.13953">
        <ele>2373</ele>
        <time>2016-12-28T13:30:15Z</time>
      </trkpt>
      <trkpt lat="42.93024" lon="0.14039">
        <ele>2370</ele>
        <time>2016-12-28T13:32:15Z</time>
      </trkpt>
      <trkpt lat="42.9298" lon="0.14157">
        <ele>2340</ele>
        <time>2016-12-28T13:34:15Z</time>
      </trkpt>
      <trkpt lat="42.9295" lon="0.14253">
        <ele>2313</ele>
        <time>2016-12-28T13:36:15Z</time>
      </trkpt>
      <trkpt lat="42.92924" lon="0.143">
        <ele>2295</ele>
        <time>2016-12-28T13:38:15Z</time>
      </trkpt>
      <trkpt lat="42.92886" lon="0.14298">
        <ele>2292</ele>
        <time>2016-12-28T13:40:15Z</time>
      </trkpt>
      <trkpt lat="42.92871" lon="0.1432">
        <ele>2285</ele>
        <time>2016-12-28T13:42:15Z</time>
      </trkpt>
      <trkpt lat="42.92826" lon="0.14331">
        <ele>2281</ele>
        <time>2016-12-28T13:44:15Z</time>
      </trkpt>
      <trkpt lat="42.92802" lon="0.14387">
        <ele>2272</ele>
        <time>2016-12-28T13:46:15Z</time>
      </trkpt>
      <trkpt lat="42.92777" lon="0.14479">
        <ele>2260</ele>
        <time>2016-12-28T13:48:15Z</time>
      </trkpt>
      <trkpt lat="42.9279" lon="0.14535">
        <ele>2248</ele>
        <time>2016-12-28T13:50:15Z</time>
      </trkpt>
      <trkpt lat="42.92811" lon="0.14585">
        <ele>2234</ele>
        <time>2016-12-28T13:52:15Z</time>
      </trkpt>
      <trkpt lat="42.92812" lon="0.14652">
        <ele>2228</ele>
        <time>2016-12-28T13:54:15Z</time>
      </trkpt>
      <trkpt lat="42.92909" lon="0.14784">
        <ele>2186</ele>
        <time>2016-12-28T13:56:15Z</time>
      </trkpt>
      <trkpt lat="42.92966" lon="0.14907">
        <ele>2173</ele>
        <time>2016-12-28T13:58:15Z</time>
      </trkpt>
      <trkpt lat="42.93003" lon="0.14963">
        <ele>2161</ele>
        <time>2016-12-28T14:00:15Z</time>
      </trkpt>
      <trkpt lat="42.93036" lon="0.15036">
        <ele>2158</ele>
        <time>2016-12-28T14:02:15Z</time>
      </trkpt>
      <trkpt lat="42.93021" lon="0.15198">
        <ele>2113</ele>
        <time>2016-12-28T14:04:15Z</time>
      </trkpt>
      <trkpt lat="42.92998" lon="0.15266">
        <ele>2097</ele>
        <time>2016-12-28T14:06:15Z</time>
      </trkpt>
      <trkpt lat="42.92988" lon="0.15307">
        <ele>2096</ele>
        <time>2016-12-28T14:08:15Z</time>
      </trkpt>
      <trkpt lat="42.92984" lon="0.1538">
        <ele>2088</ele>
        <time>2016-12-28T14:10:15Z</time>
      </trkpt>
      <trkpt lat="42.92991" lon="0.15415">
        <ele>2079</ele>
        <time>2016-12-28T14:12:15Z</time>
      </trkpt>
      <trkpt lat="42.93043" lon="0.15308">
        <ele>2092</ele>
        <time>2016-12-28T14:14:15Z</time>
      </trkpt>
      <trkpt lat="42.93088" lon="0.15346">
        <ele>2086</ele>
        <time>2016-12-28T14:16:15Z</time>
      </trkpt>
      <trkpt lat="42.9311" lon="0.15375">
        <ele>2088</ele>
        <time>2016-12-28T14:18:15Z</time>
      </trkpt>
      <trkpt lat="42.93107" lon="0.15436">
        <ele>2071</ele>
        <time>2016-12-28T14:20:15Z</time>
      </trkpt>
      <trkpt lat="42.93127" lon="0.15518">
        <ele>2051</ele>
        <time>2016-12-28T14:22:15Z</time>
      </trkpt>
      <trkpt lat="42.93133" lon="0.15628">
        <ele>2010</ele>
        <time>2016-12-28T14:24:15Z</time>
      </trkpt>
      <trkpt lat="42.93159" lon="0.15688">
        <ele>1988</ele>
        <time>2016-12-28T14:26:15Z</time>
      </trkpt>
      <trkpt lat="42.93162" lon="0.15731">
        <ele>1969</ele>
        <time>2016-12-28T14:28:15Z</time>
      </trkpt>
      <trkpt lat="42.93174" lon="0.15764">
        <ele>1956</ele>
        <time>2016-12-28T14:30:15Z</time>
      </trkpt>
      <trkpt lat="42.93187" lon="0.15834">
        <ele>1932</ele>
        <time>2016-12-28T14:32:15Z</time>
      </trkpt>
      <trkpt lat="42.93164" lon="0.15902">
        <ele>1931</ele>
        <time>2016-12-28T14:34:15Z</time>
      </trkpt>
      <trkpt lat="42.93202" lon="0.15888">
        <ele>1919</ele>
        <time>2016-12-28T14:36:15Z</time>
      </trkpt>
      <trkpt lat="42.93225" lon="0.1593">
        <ele>1903</ele>
        <time>2016-12-28T14:38:15Z</time>
      </trkpt>
      <trkpt lat="42.93182" lon="0.15935">
        <ele>1920</ele>
        <time>2016-12-28T14:40:15Z</time>
      </trkpt>
      <trkpt lat="42.93219" lon="0.15958">
        <ele>1901</ele>
        <time>2016-12-28T14:42:15Z</time>
      </trkpt>
      <trkpt lat="42.93219" lon="0.15979">
        <ele>1897</ele>
        <time>2016-12-28T14:44:15Z</time>
      </trkpt>
      <trkpt lat="42.93202" lon="0.16001">
        <ele>1903</ele>
        <time>2016-12-28T14:46:15Z</time>
      </trkpt>
      <trkpt lat="42.9322" lon="0.16013">
        <ele>1891</ele>
        <time>2016-12-28T14:48:15Z</time>
      </trkpt>
      <trkpt lat="42.93251" lon="0.16021">
        <ele>1873</ele>
        <time>2016-12-28T14:50:15Z</time>
      </trkpt>
      <trkpt lat="42.9323" lon="0.16092">
        <ele>1870</ele>
        <time>2016-12-28T14:52:15Z</time>
      </trkpt>
      <trkpt lat="42.932" lon="0.16121">
        <ele>1881</ele>
        <time>2016-12-28T14:54:15Z</time>
      </trkpt>
      <trkpt lat="42.93187" lon="0.16158">
        <ele>1880</ele>
        <time>2016-12-28T14:56:15Z</time>
      </trkpt>
      <trkpt lat="42.93128" lon="0.16234">
        <ele>1868</ele>
        <time>2016-12-28T14:58:15Z</time>
      </trkpt>
      <trkpt lat="42.93081" lon="0.16272">
        <ele>1856</ele>
        <time>2016-12-28T15:00:15Z</time>
      </trkpt>
      <trkpt lat="42.9301" lon="0.16293">
        <ele>1846</ele>
        <time>2016-12-28T15:02:15Z</time>
      </trkpt>
      <trkpt lat="42.92936" lon="0.16306">
        <ele>1846</ele>
        <time>2016-12-28T15:04:15Z</time>
      </trkpt>
      <trkpt lat="42.92894" lon="0.16325">
        <ele>1844</ele>
        <time>2016-12-28T15:06:15Z</time>
      </trkpt>
      <trkpt lat="42.92876" lon="0.16341">
        <ele>1843</ele>
        <time>2016-12-28T15:08:15Z</time>
      </trkpt>
      <trkpt lat="42.92852" lon="0.16385">
        <ele>1833</ele>
        <time>2016-12-28T15:10:15Z</time>
      </trkpt>
      <trkpt lat="42.92833" lon="0.16435">
        <ele>1822</ele>
        <time>2016-12-28T15:12:15Z</time>
      </trkpt>
      <trkpt lat="42.92845" lon="0.16473">
        <ele>1811</ele>
        <time>2016-12-28T15:14:15Z</time>
      </trkpt>
      <trkpt lat="42.92824" lon="0.16546">
        <ele>1811</ele>
        <time>2016-12-28T15:16:15Z</time>
      </trkpt>
      <trkpt lat="42.92847" lon="0.16663">
        <ele>1785</ele>
        <time>2016-12-28T15:18:15Z</time>
      </trkpt>
      <trkpt lat="42.92879" lon="0.16818">
        <ele>1757</ele>
        <time>2016-12-28T15:20:15Z</time>
      </trkpt>
      <trkpt lat="42.92909" lon="0.17083">
        <ele>1704</ele>
        <time>2016-12-28T15:22:15Z</time>
      </trkpt>
      <trkpt lat="42.92911" lon="0.17196">
        <ele>1692</ele>
        <time>2016-12-28T15:24:15Z</time>
      </trkpt>
      <trkpt lat="42.92953" lon="0.17234">
        <ele>1662</ele>
        <time>2016-12-28T15:26:15Z</time>
      </trkpt>
      <trkpt lat="42.92979" lon="0.1734">
        <ele>1634</ele>
        <time>2016-12-28T15:28:15Z</time>
      </trkpt>
      <trkpt lat="42.93015" lon="0.1743">
        <ele>1610</ele>
        <time>2016-12-28T15:30:15Z</time>
      </trkpt>
      <trkpt lat="42.9302" lon="0.17558">
        <ele>1600</ele>
        <time>2016-12-28T15:32:15Z</time>
      </trkpt>
      <trkpt lat="42.92954" lon="0.17619">
        <ele>1611</ele>
        <time>2016-12-28T15:34:15Z</time>
      </trkpt>
      <trkpt lat="42.92935" lon="0.17711">
        <ele>1598</ele>
        <time>2016-12-28T15:36:15Z</time>
      </trkpt>
      <trkpt lat="42.92901" lon="0.17795">
        <ele>1590</ele>
        <time>2016-12-28T15:38:15Z</time>
      </trkpt>
      <trkpt lat="42.92863" lon="0.17904">
        <ele>1582</ele>
        <time>2016-12-28T15:40:15Z</time>
      </trkpt>
      <trkpt lat="42.92859" lon="0.17953">
        <ele>1577</ele>
        <time>2016-12-28T15:42:15Z</time>
      </trkpt>
      <trkpt lat="42.92836" lon="0.18036">
        <ele>1566</ele>
        <time>2016-12-28T15:44:15Z</time>
      </trkpt>
      <trkpt lat="42.92831" lon="0.18134">
        <ele>1561</ele>
        <time>2016-12-28T15:46:15Z</time>
      </trkpt>
      <trkpt lat="42.92831" lon="0.18125">
        <ele>1561</ele>
        <time>2016-12-28T15:48:15Z</time>
      </trkpt>
      <trkpt lat="42.92831" lon="0.18138">
        <ele>1561</ele>
        <time>2016-12-28T15:50:15Z</time>
      </trkpt>
      <trkpt lat="42.92789" lon="0.18198">
        <ele>1563</ele>
        <time>2016-12-28T15:52:15Z</time>
      </trkpt>
      <trkpt lat="42.92705" lon="0.18245">
        <ele>1568</ele>
        <time>2016-12-28T15:54:15Z</time>
      </trkpt>
      <trkpt lat="42.9263" lon="0.18282">
        <ele>1586</ele>
        <time>2016-12-28T15:56:15Z</time>
      </trkpt>
      <trkpt lat="42.92571" lon="0.18357">
        <ele>1584</ele>
        <time>2016-12-28T15:58:15Z</time>
      </trkpt>
      <trkpt lat="42.92461" lon="0.1847">
        <ele>1615</ele>
        <time>2016-12-28T16:00:15Z</time>
      </trkpt>
      <trkpt lat="42.92376" lon="0.18537">
        <ele>1641</ele>
        <time>2016-12-28T16:02:15Z</time>
      </trkpt>
      <trkpt lat="42.9228" lon="0.186">
        <ele>1656</ele>
        <time>2016-12-28T16:04:15Z</time>
      </trkpt>
      <trkpt lat="42.92227" lon="0.18615">
        <ele>1668</ele>
        <time>2016-12-28T16:06:15Z</time>
      </trkpt>
      <trkpt lat="42.92176" lon="0.18673">
        <ele>1661</ele>
        <time>2016-12-28T16:08:15Z</time>
      </trkpt>
      <trkpt lat="42.92099" lon="0.18653">
        <ele>1661</ele>
        <time>2016-12-28T16:10:15Z</time>
      </trkpt>
      <trkpt lat="42.92003" lon="0.18557">
        <ele>1671</ele>
        <time>2016-12-28T16:12:15Z</time>
      </trkpt>
      <trkpt lat="42.91887" lon="0.18537">
        <ele>1643</ele>
        <time>2016-12-28T16:14:15Z</time>
      </trkpt>
      <trkpt lat="42.91768" lon="0.18505">
        <ele>1628</ele>
        <time>2016-12-28T16:16:15Z</time>
      </trkpt>
      <trkpt lat="42.91659" lon="0.1841">
        <ele>1653</ele>
        <time>2016-12-28T16:18:15Z</time>
      </trkpt>
      <trkpt lat="42.91604" lon="0.18328">
        <ele>1671</ele>
        <time>2016-12-28T16:20:15Z</time>
      </trkpt>
      <trkpt lat="42.91607" lon="0.18282">
        <ele>1689</ele>
        <time>2016-12-28T16:22:15Z</time>
      </trkpt>
      <trkpt lat="42.91579" lon="0.18252">
        <ele>1687</ele>
        <time>2016-12-28T16:24:15Z</time>
      </trkpt>
      <trkpt lat="42.91499" lon="0.18213">
        <ele>1684</ele>
        <time>2016-12-28T16:26:15Z</time>
      </trkpt>
      <trkpt lat="42.91469" lon="0.1814">
        <ele>1709</ele>
        <time>2016-12-28T16:28:15Z</time>
      </trkpt>
      <trkpt lat="42.9141" lon="0.18097">
        <ele>1723</ele>
        <time>2016-12-28T16:30:15Z</time>
      </trkpt>
      <trkpt lat="42.91364" lon="0.18042">
        <ele>1738</ele>
        <time>2016-12-28T16:32:15Z</time>
      </trkpt>
      <trkpt lat="42.91276" lon="0.18073">
        <ele>1714</ele>
        <time>2016-12-28T16:34:15Z</time>
      </trkpt>
      <trkpt lat="42.91245" lon="0.18051">
        <ele>1719</ele>
        <time>2016-12-28T16:36:15Z</time>
      </trkpt>
      <trkpt lat="42.9119" lon="0.18069">
        <ele>1716</ele>
        <time>2016-12-28T16:38:15Z</time>
      </trkpt>
      <trkpt lat="42.91149" lon="0.18089">
        <ele>1714</ele>
        <time>2016-12-28T16:40:15Z</time>
      </trkpt>
      <trkpt lat="42.91079" lon="0.18143">
        <ele>1710</ele>
        <time>2016-12-28T16:42:15Z</time>
      </trkpt>
      <trkpt lat="42.9103" lon="0.18093">
        <ele>1718</ele>
        <time>2016-12-28T16:44:15Z</time>
      </trkpt>
      <trkpt lat="42.91021" lon="0.18148">
        <ele>1715</ele>
        <time>2016-12-28T16:46:15Z</time>
      </trkpt>
      <trkpt lat="42.91" lon="0.18157">
        <ele>1716</ele>
        <time>2016-12-28T16:48:15Z</time>
      </trkpt>
      <trkpt lat="42.91028" lon="0.18204">
        <ele>1714</ele>
        <time>2016-12-28T16:50:15Z</time>
      </trkpt>
      <trkpt lat="42.91042" lon="0.18312">
        <ele>1722</ele>
        <time>2016-12-28T16:52:15Z</time>
      </trkpt>
      <trkpt lat="42.9106" lon="0.1838">
        <ele>1729</ele>
        <time>2016-12-28T16:54:15Z</time>
      </trkpt>
      <trkpt lat="42.91066" lon="0.18442">
        <ele>1740</ele>
        <time>2016-12-28T16:56:15Z</time>
      </trkpt>
      <trkpt lat="42.91138" lon="0.18488">
        <ele>1727</ele>
        <time>2016-12-28T16:58:15Z</time>
      </trkpt>
      <trkpt lat="42.91156" lon="0.18556">
        <ele>1739</ele>
        <time>2016-12-28T17:00:15Z</time>
      </trkpt>
      <trkpt lat="42.91222" lon="0.18584">
        <ele>1719</ele>
        <time>2016-12-28T17:02:15Z</time>
      </trkpt>
      <trkpt lat="42.91296" lon="0.18561">
        <ele>1684</ele>
        <time>2016-12-28T17:04:15Z</time>
      </trkpt>
      <trkpt lat="42.91324" lon="0.1861">
        <ele>1682</ele>
        <time>2016-12-28T17:06:15Z</time>
      </trkpt>
      <trkpt lat="42.91341" lon="0.1867">
        <ele>1691</ele>
        <time>2016-12-28T17:08:15Z</time>
      </trkpt>
      <trkpt lat="42.91436" lon="0.18702">
        <ele>1665</ele>
        <time>2016-12-28T17:10:15Z</time>
      </trkpt>
      <trkpt lat="42.9148" lon="0.18742">
        <ele>1660</ele>
        <time>2016-12-28T17:12:15Z</time>
      </trkpt>
      <trkpt lat="42.91522" lon="0.18739">
        <ele>1643</ele>
        <time>2016-12-28T17:14:15Z</time>
      </trkpt>
      <trkpt lat="42.91567" lon="0.18737">
        <ele>1623</ele>
        <time>2016-12-28T17:16:15Z</time>
      </trkpt>
      <trkpt lat="42.91599" lon="0.18783">
        <ele>1624</ele>
        <time>2016-12-28T17:18:15Z</time>
      </trkpt>
      <trkpt lat="42.91603" lon="0.18815">
        <ele>1631</ele>
        <time>2016-12-28T17:20:15Z</time>
      </trkpt>
      <trkpt lat="42.9165" lon="0.18873">
        <ele>1626</ele>
        <time>2016-12-28T17:22:15Z</time>
      </trkpt>
      <trkpt lat="42.91683" lon="0.1889">
        <ele>1616</ele>
        <time>2016-12-28T17:24:15Z</time>
      </trkpt>
      <trkpt lat="42.91723" lon="0.1891">
        <ele>1606</ele>
        <time>2016-12-28T17:26:15Z</time>
      </trkpt>
      <trkpt lat="42.91743" lon="0.1893">
        <ele>1600</ele>
        <time>2016-12-28T17:28:15Z</time>
      </trkpt>
      <trkpt lat="42.9178" lon="0.18975">
        <ele>1597</ele>
        <time>2016-12-28T17:30:15Z</time>
      </trkpt>
      <trkpt lat="42.9181" lon="0.19018">
        <ele>1596</ele>
        <time>2016-12-28T17:32:15Z</time>
      </trkpt>
      <trkpt lat="42.91834" lon="0.19037">
        <ele>1592</ele>
        <time>2016-12-28T17:34:15Z</time>
      </trkpt>
      <trkpt lat="42.91851" lon="0.19051">
        <ele>1591</ele>
        <time>2016-12-28T17:36:15Z</time>
      </trkpt>
      <trkpt lat="42.91883" lon="0.19145">
        <ele>1592</ele>
        <time>2016-12-28T17:38:15Z</time>
      </trkpt>
      <trkpt lat="42.91881" lon="0.1924">
        <ele>1600</ele>
        <time>2016-12-28T17:40:15Z</time>
      </trkpt>
      <trkpt lat="42.91887" lon="0.1933">
        <ele>1604</ele>
        <time>2016-12-28T17:42:15Z</time>
      </trkpt>
      <trkpt lat="42.91883" lon="0.19429">
        <ele>1613</ele>
        <time>2016-12-28T17:44:15Z</time>
      </trkpt>
      <trkpt lat="42.91893" lon="0.19521">
        <ele>1613</ele>
        <time>2016-12-28T17:46:15Z</time>
      </trkpt>
      <trkpt lat="42.91898" lon="0.19617">
        <ele>1618</ele>
        <time>2016-12-28T17:48:15Z</time>
      </trkpt>
      <trkpt lat="42.91902" lon="0.19686">
        <ele>1625</ele>
        <time>2016-12-28T17:50:15Z</time>
      </trkpt>
      <trkpt lat="42.91941" lon="0.19756">
        <ele>1619</ele>
        <time>2016-12-28T17:52:15Z</time>
      </trkpt>
      <trkpt lat="42.91967" lon="0.19848">
        <ele>1632</ele>
        <time>2016-12-28T17:54:15Z</time>
      </trkpt>
      <trkpt lat="42.91981" lon="0.19946">
        <ele>1649</ele>
        <time>2016-12-28T17:56:15Z</time>
      </trkpt>
      <trkpt lat="42.92003" lon="0.20066">
        <ele>1652</ele>
        <time>2016-12-28T17:58:15Z</time>
      </trkpt>
      <trkpt lat="42.91968" lon="0.20103">
        <ele>1673</ele>
        <time>2016-12-28T18:00:15Z</time>
      </trkpt>
      <trkpt lat="42.91927" lon="0.20162">
        <ele>1693</ele>
        <time>2016-12-28T18:02:15Z</time>
      </trkpt>
      <trkpt lat="42.91871" lon="0.20211">
        <ele>1704</ele>
        <time>2016-12-28T18:04:15Z</time>
      </trkpt>
      <trkpt lat="42.91818" lon="0.20253">
        <ele>1712</ele>
        <time>2016-12-28T18:06:15Z</time>
      </trkpt>
      <trkpt lat="42.91763" lon="0.2029">
        <ele>1720</ele>
        <time>2016-12-28T18:08:15Z</time>
      </trkpt>
      <trkpt lat="42.91707" lon="0.2033">
        <ele>1728</ele>
        <time>2016-12-28T18:10:15Z</time>
      </trkpt>
      <trkpt lat="42.91656" lon="0.20374">
        <ele>1727</ele>
        <time>2016-12-28T18:12:15Z</time>
      </trkpt>
      <trkpt lat="42.91584" lon="0.20414">
        <ele>1731</ele>
        <time>2016-12-28T18:14:15Z</time>
      </trkpt>
      <trkpt lat="42.91523" lon="0.20343">
        <ele>1765</ele>
        <time>2016-12-28T18:16:15Z</time>
      </trkpt>
      <trkpt lat="42.91461" lon="0.20356">
        <ele>1753</ele>
        <time>2016-12-28T18:18:15Z</time>
      </trkpt>
      <trkpt lat="42.91424" lon="0.20419">
        <ele>1724</ele>
        <time>2016-12-28T18:20:15Z</time>
      </trkpt>
      <trkpt lat="42.91402" lon="0.20487">
        <ele>1706</ele>
        <time>2016-12-28T18:22:15Z</time>
      </trkpt>
      <trkpt lat="42.91351" lon="0.20552">
        <ele>1696</ele>
        <time>2016-12-28T18:24:15Z</time>
      </trkpt>
      <trkpt lat="42.9132" lon="0.20625">
        <ele>1677</ele>
        <time>2016-12-28T18:26:15Z</time>
      </trkpt>
      <trkpt lat="42.91284" lon="0.20688">
        <ele>1670</ele>
        <time>2016-12-28T18:28:15Z</time>
      </trkpt>
      <trkpt lat="42.91235" lon="0.20751">
        <ele>1667</ele>
        <time>2016-12-28T18:30:15Z</time>
      </trkpt>
      <trkpt lat="42.91194" lon="0.20815">
        <ele>1656</ele>
        <time>2016-12-28T18:32:15Z</time>
      </trkpt>
      <trkpt lat="42.91156" lon="0.20881">
        <ele>1637</ele>
        <time>2016-12-28T18:34:15Z</time>
      </trkpt>
      <trkpt lat="42.9111" lon="0.20933">
        <ele>1630</ele>
        <time>2016-12-28T18:36:15Z</time>
      </trkpt>
      <trkpt lat="42.91082" lon="0.21012">
        <ele>1607</ele>
        <time>2016-12-28T18:38:15Z</time>
      </trkpt>
      <trkpt lat="42.91057" lon="0.21095">
        <ele>1597</ele>
        <time>2016-12-28T18:40:15Z</time>
      </trkpt>
      <trkpt lat="42.91041" lon="0.21142">
        <ele>1595</ele>
        <time>2016-12-28T18:42:15Z</time>
      </trkpt>
      <trkpt lat="42.91018" lon="0.21201">
        <ele>1598</ele>
        <time>2016-12-28T18:44:15Z</time>
      </trkpt>
      <trkpt lat="42.90961" lon="0.21179">
        <ele>1614</ele>
        <time>2016-12-28T18:46:15Z</time>
      </trkpt>
      <trkpt lat="42.90915" lon="0.21235">
        <ele>1604</ele>
        <time>2016-12-28T18:48:15Z</time>
      </trkpt>
      <trkpt lat="42.90863" lon="0.21146">
        <ele>1608</ele>
        <time>2016-12-28T18:50:15Z</time>
      </trkpt>
      <trkpt lat="42.90786" lon="0.21166">
        <ele>1595</ele>
        <time>2016-12-28T18:52:15Z</time>
      </trkpt>
      <trkpt lat="42.90719" lon="0.21163">
        <ele>1597</ele>
        <time>2016-12-28T18:54:15Z</time>
      </trkpt>
      <trkpt lat="42.90722" lon="0.21177">
        <ele>1597</ele>
        <time>2016-12-28T18:56:15Z</time>
      </trkpt>
      <trkpt lat="42.90714" lon="0.21125">
        <ele>1601</ele>
        <time>2016-12-28T18:58:15Z</time>
      </trkpt>
      <trkpt lat="42.90653" lon="0.21066">
        <ele>1616</ele>
        <time>2016-12-28T19:00:15Z</time>
      </trkpt>
      <trkpt lat="42.90547" lon="0.2097">
        <ele>1669</ele>
        <time>2016-12-28T19:02:15Z</time>
      </trkpt>
      <trkpt lat="42.90535" lon="0.20887">
        <ele>1706</ele>
        <time>2016-12-28T19:04:15Z</time>
      </trkpt>
      <trkpt lat="42.90514" lon="0.20891">
        <ele>1709</ele>
        <time>2016-12-28T19:06:15Z</time>
      </trkpt>
      <trkpt lat="42.90502" lon="0.20938">
        <ele>1690</ele>
        <time>2016-12-28T19:08:15Z</time>
      </trkpt>
      <trkpt lat="42.9048" lon="0.2096">
        <ele>1687</ele>
        <time>2016-12-28T19:10:15Z</time>
      </trkpt>
      <trkpt lat="42.90455" lon="0.20939">
        <ele>1700</ele>
        <time>2016-12-28T19:12:15Z</time>
      </trkpt>
      <trkpt lat="42.90446" lon="0.20958">
        <ele>1695</ele>
        <time>2016-12-28T19:14:15Z</time>
      </trkpt>
      <trkpt lat="42.90271" lon="0.20836">
        <ele>1800</ele>
        <time>2016-12-28T19:16:15Z</time>
      </trkpt>
      <trkpt lat="42.90245" lon="0.20877">
        <ele>1781</ele>
        <time>2016-12-28T19:18:15Z</time>
      </trkpt>
      <trkpt lat="42.90202" lon="0.20796">
        <ele>1816</ele>
        <time>2016-12-28T19:20:15Z</time>
      </trkpt>
      <trkpt lat="42.90155" lon="0.20791">
        <ele>1817</ele>
        <time>2016-12-28T19:22:15Z</time>
      </trkpt>
      <trkpt lat="42.90181" lon="0.20751">
        <ele>1832</ele>
        <time>2016-12-28T19:24:15Z</time>
      </trkpt>
      <trkpt lat="42.90149" lon="0.20694">
        <ele>1858</ele>
        <time>2016-12-28T19:26:15Z</time>
      </trkpt>
      <trkpt lat="42.90108" lon="0.20585">
        <ele>1903</ele>
        <time>2016-12-28T19:28:15Z</time>
      </trkpt>
      <trkpt lat="42.90089" lon="0.20501">
        <ele>1939</ele>
        <time>2016-12-28T19:30:15Z</time>
      </trkpt>
      <trkpt lat="42.90043" lon="0.20453">
        <ele>1938</ele>
        <time>2016-12-28T19:32:15Z</time>
      </trkpt>
      <trkpt lat="42.89986" lon="0.20428">
        <ele>1922</ele>
        <time>2016-12-28T19:34:15Z</time>
      </trkpt>
      <trkpt lat="42.89922" lon="0.20265">
        <ele>1974</ele>
        <time>2016-12-28T19:36:15Z</time>
      </trkpt>
      <trkpt lat="42.8986" lon="0.20167">
        <ele>1984</ele>
        <time>2016-12-28T19:38:15Z</time>
      </trkpt>
      <trkpt lat="42.89882" lon="0.20068">
        <ele>2015</ele>
        <time>2016-12-28T19:40:15Z</time>
      </trkpt>
      <trkpt lat="42.89781" lon="0.20038">
        <ele>2012</ele>
        <time>2016-12-28T19:42:15Z</time>
      </trkpt>
      <trkpt lat="42.89749" lon="0.20009">
        <ele>2026</ele>
        <time>2016-12-28T19:44:15Z</time>
      </trkpt>
      <trkpt lat="42.89697" lon="0.20023">
        <ele>2033</ele>
        <time>2016-12-28T19:46:15Z</time>
      </trkpt>
      <trkpt lat="42.8967" lon="0.2">
        <ele>2045</ele>
        <time>2016-12-28T19:48:15Z</time>
      </trkpt>
      <trkpt lat="42.89651" lon="0.19951">
        <ele>2060</ele>
        <time>2016-12-28T19:50:15Z</time>
      </trkpt>
      <trkpt lat="42.89632" lon="0.19925">
        <ele>2065</ele>
        <time>2016-12-28T19:52:15Z</time>
      </trkpt>
      <trkpt lat="42.89616" lon="0.19879">
        <ele>2074</ele>
        <time>2016-12-28T19:54:15Z</time>
      </trkpt>
      <trkpt lat="42.89591" lon="0.19865">
        <ele>2077</ele>
        <time>2016-12-28T19:56:15Z</time>
      </trkpt>
      <trkpt lat="42.89507" lon="0.19822">
        <ele>2072</ele>
        <time>2016-12-28T19:58:15Z</time>
      </trkpt>
      <trkpt lat="42.89442" lon="0.19739">
        <ele>2088</ele>
        <time>2016-12-28T20:00:15Z</time>
      </trkpt>
      <trkpt lat="42.89403" lon="0.19704">
        <ele>2095</ele>
        <time>2016-12-28T20:02:15Z</time>
      </trkpt>
      <trkpt lat="42.89377" lon="0.19726">
        <ele>2086</ele>
        <time>2016-12-28T20:04:15Z</time>
      </trkpt>
      <trkpt lat="42.8935" lon="0.19718">
        <ele>2087</ele>
        <time>2016-12-28T20:06:15Z</time>
      </trkpt>
      <trkpt lat="42.89339" lon="0.19743">
        <ele>2080</ele>
        <time>2016-12-28T20:08:15Z</time>
      </trkpt>
      <trkpt lat="42.89292" lon="0.19739">
        <ele>2087</ele>
        <time>2016-12-28T20:10:15Z</time>
      </trkpt>
      <trkpt lat="42.89283" lon="0.19766">
        <ele>2084</ele>
        <time>2016-12-28T20:12:15Z</time>
      </trkpt>
      <trkpt lat="42.89263" lon="0.19783">
        <ele>2085</ele>
        <time>2016-12-28T20:14:15Z</time>
      </trkpt>
      <trkpt lat="42.8925" lon="0.19807">
        <ele>2083</ele>
        <time>2016-12-28T20:16:15Z</time>
      </trkpt>
      <trkpt lat="42.89222" lon="0.19839">
        <ele>2087</ele>
        <time>2016-12-28T20:18:15Z</time>
      </trkpt>
      <trkpt lat="42.89183" lon="0.19917">
        <ele>2096</ele>
        <time>2016-12-28T20:20:15Z</time>
      </trkpt>
      <trkpt lat="42.89169" lon="0.20009">
        <ele>2111</ele>
        <time>2016-12-28T20:22:15Z</time>
      </trkpt>
      <trkpt lat="42.89217" lon="0.20062">
        <ele>2112</ele>
        <time>2016-12-28T20:24:15Z</time>
      </trkpt>
      <trkpt lat="42.89196" lon="0.20094">
        <ele>2119</ele>
        <time>2016-12-28T20:26:15Z</time>
      </trkpt>
      <trkpt lat="42.89139" lon="0.20071">
        <ele>2119</ele>
        <time>2016-12-28T20:28:15Z</time>
      </trkpt>
      <trkpt lat="42.89098" lon="0.20143">
        <ele>2125</ele>
        <time>2016-12-28T20:30:15Z</time>
      </trkpt>
      <trkpt lat="42.88978" lon="0.20331">
        <ele>2134</ele>
        <time>2016-12-28T20:32:15Z</time>
      </trkpt>
      <trkpt lat="42.88889" lon="0.20487">
        <ele>2141</ele>
        <time>2016-12-28T20:34:15Z</time>
      </trkpt>
      <trkpt lat="42.88884" lon="0.20517">
        <ele>2146</ele>
        <time>2016-12-28T20:36:15Z</time>
      </trkpt>
      <trkpt lat="42.8875" lon="0.20516">
        <ele>2115</ele>
        <time>2016-12-28T20:38:15Z</time>
      </trkpt>
      <trkpt lat="42.8867" lon="0.2055">
        <ele>2114</ele>
        <time>2016-12-28T20:40:15Z</time>
      </trkpt>
      <trkpt lat="42.8858" lon="0.20642">
        <ele>2130</ele>
        <time>2016-12-28T20:42:15Z</time>
      </trkpt>
      <trkpt lat="42.88546" lon="0.20622">
        <ele>2121</ele>
        <time>2016-12-28T20:44:15Z</time>
      </trkpt>
      <trkpt lat="42.88466" lon="0.20519">
        <ele>2122</ele>
        <time>2016-12-28T20:46:15Z</time>
      </trkpt>
      <trkpt lat="42.88479" lon="0.20487">
        <ele>2123</ele>
        <time>2016-12-28T20:48:15Z</time>
      </trkpt>
      <trkpt lat="42.88441" lon="0.20473">
        <ele>2138</ele>
        <time>2016-12-28T20:50:15Z</time>
      </trkpt>
      <trkpt lat="42.88459" lon="0.20444">
        <ele>2140</ele>
        <time>2016-12-28T20:52:15Z</time>
      </trkpt>
      <trkpt lat="42.88416" lon="0.2043">
        <ele>2166</ele>
        <time>2016-12-28T20:54:15Z</time>
      </trkpt>
      <trkpt lat="42.88379" lon="0.20502">
        <ele>2156</ele>
        <time>2016-12-28T20:56:15Z</time>
      </trkpt>
      <trkpt lat="42.88285" lon="0.20509">
        <ele>2193</ele>
        <time>2016-12-28T20:58:15Z</time>
      </trkpt>
      <trkpt lat="42.88201" lon="0.20543">
        <ele>2203</ele>
        <time>2016-12-28T21:00:15Z</time>
      </trkpt>
      <trkpt lat="42.88156" lon="0.20557">
        <ele>2209</ele>
        <time>2016-12-28T21:02:15Z</time>
      </trkpt>
      <trkpt lat="42.88112" lon="0.20595">
        <ele>2215</ele>
        <time>2016-12-28T21:04:15Z</time>
      </trkpt>
      <trkpt lat="42.88068" lon="0.20575">
        <ele>2219</ele>
        <time>2016-12-28T21:06:15Z</time>
      </trkpt>
      <trkpt lat="42.87978" lon="0.20539">
        <ele>2224</ele>
        <time>2016-12-28T21:08:15Z</time>
      </trkpt>
      <trkpt lat="42.87961" lon="0.20457">
        <ele>2226</ele>
        <time>2016-12-28T21:10:15Z</time>
      </trkpt>
      <trkpt lat="42.87908" lon="0.20398">
        <ele>2234</ele>
        <time>2016-12-28T21:12:15Z</time>
      </trkpt>
      <trkpt lat="42.87865" lon="0.2039">
        <ele>2251</ele>
        <time>2016-12-28T21:14:15Z</time>
      </trkpt>
      <trkpt lat="42.87843" lon="0.20443">
        <ele>2258</ele>
        <time>2016-12-28T21:16:15Z</time>
      </trkpt>
      <trkpt lat="42.87762" lon="0.20472">
        <ele>2286</ele>
        <time>2016-12-28T21:18:15Z</time>
      </trkpt>
      <trkpt lat="42.87722" lon="0.20533">
        <ele>2300</ele>
        <time>2016-12-28T21:20:15Z</time>
      </trkpt>
      <trkpt lat="42.87633" lon="0.20591">
        <ele>2325</ele>
        <time>2016-12-28T21:22:15Z</time>
      </trkpt>
      <trkpt lat="42.87551" lon="0.20524">
        <ele>2350</ele>
        <time>2016-12-28T21:24:15Z</time>
      </trkpt>
      <trkpt lat="42.87462" lon="0.20573">
        <ele>2364</ele>
        <time>2016-12-28T21:26:15Z</time>
      </trkpt>
      <trkpt lat="42.87412" lon="0.20544">
        <ele>2376</ele>
        <time>2016-12-28T21:28:15Z</time>
      </trkpt>
      <trkpt lat="42.87363" lon="0.20546">
        <ele>2385</ele>
        <time>2016-12-28T21:30:15Z</time>
      </trkpt>
      <trkpt lat="42.87273" lon="0.20467">
        <ele>2401</ele>
        <time>2016-12-28T21:32:15Z</time>
      </trkpt>
      <trkpt lat="42.87231" lon="0.20484">
        <ele>2405</ele>
        <time>2016-12-28T21:34:15Z</time>
      </trkpt>
      <trkpt lat="42.87189" lon="0.20522">
        <ele>2407</ele>
        <time>2016-12-28T21:36:15Z</time>
      </trkpt>
      <trkpt lat="42.87139" lon="0.20509">
        <ele>2411</ele>
        <time>2016-12-28T21:38:15Z</time>
      </trkpt>
      <trkpt lat="42.87099" lon="0.20531">
        <ele>2411</ele>
        <time>2016-12-28T21:40:15Z</time>
      </trkpt>
      <trkpt lat="42.87007" lon="0.20645">
        <ele>2415</ele>
        <time>2016-12-28T21:42:15Z</time>
      </trkpt>
      <trkpt lat="42.86871" lon="0.20715">
        <ele>2438</ele>
        <time>2016-12-28T21:44:15Z</time>
      </trkpt>
      <trkpt lat="42.86732" lon="0.20697">
        <ele>2491</ele>
        <time>2016-12-28T21:46:15Z</time>
      </trkpt>
      <trkpt lat="42.86724" lon="0.20625">
        <ele>2494</ele>
        <time>2016-12-28T21:48:15Z</time>
      </trkpt>
      <trkpt lat="42.86688" lon="0.2064">
        <ele>2497</ele>
        <time>2016-12-28T21:50:15Z</time>
      </trkpt>
      <trkpt lat="42.86688" lon="0.20658">
        <ele>2494</ele>
        <time>2016-12-28T21:52:15Z</time>
      </trkpt>
      <trkpt lat="42.86628" lon="0.20701">
        <ele>2488</ele>
        <time>2016-12-28T21:54:15Z</time>
      </trkpt>
      <trkpt lat="42.86589" lon="0.20672">
        <ele>2473</ele>
        <time>2016-12-28T21:56:15Z</time>
      </trkpt>
      <trkpt lat="42.86569" lon="0.20659">
        <ele>2463</ele>
        <time>2016-12-28T21:58:15Z</time>
      </trkpt>
      <trkpt lat="42.86517" lon="0.2066">
        <ele>2438</ele>
        <time>2016-12-28T22:00:15Z</time>
      </trkpt>
      <trkpt lat="42.86485" lon="0.20698">
        <ele>2429</ele>
        <time>2016-12-28T22:02:15Z</time>
      </trkpt>
      <trkpt lat="42.86375" lon="0.20699">
        <ele>2389</ele>
        <time>2016-12-28T22:04:15Z</time>
      </trkpt>
      <trkpt lat="42.86285" lon="0.20721">
        <ele>2366</ele>
        <time>2016-12-28T22:06:15Z</time>
      </trkpt>
      <trkpt lat="42.86134" lon="0.20665">
        <ele>2334</ele>
        <time>2016-12-28T22:08:15Z</time>
      </trkpt>
      <trkpt lat="42.86103" lon="0.20708">
        <ele>2328</ele>
        <time>2016-12-28T22:10:15Z</time>
      </trkpt>
      <trkpt lat="42.85999" lon="0.20677">
        <ele>2308</ele>
        <time>2016-12-28T22:12:15Z</time>
      </trkpt>
      <trkpt lat="42.85913" lon="0.20751">
        <ele>2288</ele>
        <time>2016-12-28T22:14:15Z</time>
      </trkpt>
      <trkpt lat="42.85804" lon="0.20741">
        <ele>2278</ele>
        <time>2016-12-28T22:16:15Z</time>
      </trkpt>
      <trkpt lat="42.85672" lon="0.20719">
        <ele>2274</ele>
        <time>2016-12-28T22:18:15Z</time>
      </trkpt>
      <trkpt lat="42.85597" lon="0.20757">
        <ele>2260</ele>
        <time>2016-12-28T22:20:15Z</time>
      </trkpt>
      <trkpt lat="42.85596" lon="0.20849">
        <ele>2252</ele>
        <time>2016-12-28T22:22:15Z</time>
      </trkpt>
      <trkpt lat="42.85562" lon="0.20942">
        <ele>2249</ele>
        <time>2016-12-28T22:24:15Z</time>
      </trkpt>
      <trkpt lat="42.85482" lon="0.20994">
        <ele>2248</ele>
        <time>2016-12-28T22:26:15Z</time>
      </trkpt>
      <trkpt lat="42.85356" lon="0.20974">
        <ele>2234</ele>
        <time>2016-12-28T22:28:15Z</time>
      </trkpt>
      <trkpt lat="42.853" lon="0.21086">
        <ele>2237</ele>
        <time>2016-12-28T22:30:15Z</time>
      </trkpt>
      <trkpt lat="42.85242" lon="0.21125">
        <ele>2231</ele>
        <time>2016-12-28T22:32:15Z</time>
      </trkpt>
      <trkpt lat="42.85122" lon="0.21197">
        <ele>2226</ele>
        <time>2016-12-28T22:34:15Z</time>
      </trkpt>
      <trkpt lat="42.85069" lon="0.21199">
        <ele>2222</ele>
        <time>2016-12-28T22:36:15Z</time>
      </trkpt>
      <trkpt lat="42.84984" lon="0.21257">
        <ele>2218</ele>
        <time>2016-12-28T22:38:15Z</time>
      </trkpt>
      <trkpt lat="42.84893" lon="0.21272">
        <ele>2203</ele>
        <time>2016-12-28T22:40:15Z</time>
      </trkpt>
      <trkpt lat="42.8482" lon="0.21345">
        <ele>2195</ele>
        <time>2016-12-28T22:42:15Z</time>
      </trkpt>
      <trkpt lat="42.84758" lon="0.21277">
        <ele>2170</ele>
        <time>2016-12-28T22:44:15Z</time>
      </trkpt>
      <trkpt lat="42.84663" lon="0.2125">
        <ele>2155</ele>
        <time>2016-12-28T22:46:15Z</time>
      </trkpt>
      <trkpt lat="42.84635" lon="0.2119">
        <ele>2153</ele>
        <time>2016-12-28T22:48:15Z</time>
      </trkpt>
      <trkpt lat="42.8446" lon="0.21007">
        <ele>2149</ele>
        <time>2016-12-28T22:50:15Z</time>
      </trkpt>
      <trkpt lat="42.84389" lon="0.21028">
        <ele>2166</ele>
        <time>2016-12-28T22:52:15Z</time>
      </trkpt>
      <trkpt lat="42.8422" lon="0.20906">
        <ele>2129</ele>
        <time>2016-12-28T22:54:15Z</time>
      </trkpt>
      <trkpt lat="42.84198" lon="0.20907">
        <ele>2132</ele>
        <time>2016-12-28T22:56:15Z</time>
      </trkpt>
      <trkpt lat="42.84075" lon="0.20832">
        <ele>2134</ele>
        <time>2016-12-28T22:58:15Z</time>
      </trkpt>
      <trkpt lat="42.83993" lon="0.2078">
        <ele>2130</ele>
        <time>2016-12-28T23:00:15Z</time>
      </trkpt>
      <trkpt lat="42.83873" lon="0.20834">
        <ele>2145</ele>
        <time>2016-12-28T23:02:15Z</time>
      </trkpt>
      <trkpt lat="42.8381" lon="0.20824">
        <ele>2137</ele>
        <time>2016-12-28T23:04:15Z</time>
      </trkpt>
      <trkpt lat="42.83725" lon="0.20845">
        <ele>2124</ele>
        <time>2016-12-28T23:06:15Z</time>
      </trkpt>
      <trkpt lat="42.83564" lon="0.20863">
        <ele>2105</ele>
        <time>2016-12-28T23:08:15Z</time>
      </trkpt>
      <trkpt lat="42.83363" lon="0.20962">
        <ele>2120</ele>
        <time>2016-12-28T23:10:15Z</time>
      </trkpt>
      <trkpt lat="42.83234" lon="0.20997">
        <ele>2109</ele>
        <time>2016-12-28T23:12:15Z</time>
      </trkpt>
      <trkpt lat="42.83159" lon="0.21086">
        <ele>2126</ele>
        <time>2016-12-28T23:14:15Z</time>
      </trkpt>
      <trkpt lat="42.83031" lon="0.21281">
        <ele>2104</ele>
        <time>2016-12-28T23:16:15Z</time>
      </trkpt>
      <trkpt lat="42.83024" lon="0.21393">
        <ele>2109</ele>
        <time>2016-12-28T23:18:15Z</time>
      </trkpt>
      <trkpt lat="42.82978" lon="0.21377">
        <ele>2094</ele>
        <time>2016-12-28T23:20:15Z</time>
      </trkpt>
      <trkpt lat="42.82932" lon="0.21429">
        <ele>2079</ele>
        <time>2016-12-28T23:22:15Z</time>
      </trkpt>
      <trkpt lat="42.82919" lon="0.21603">
        <ele>2071</ele>
        <time>2016-12-28T23:24:15Z</time>
      </trkpt>
      <trkpt lat="42.82863" lon="0.21893">
        <ele>2044</ele>
        <time>2016-12-28T23:26:15Z</time>
      </trkpt>
      <trkpt lat="42.82835" lon="0.2208">
        <ele>2039</ele>
        <time>2016-12-28T23:28:15Z</time>
      </trkpt>
      <trkpt lat="42.82833" lon="0.22105">
        <ele>2039</ele>
        <time>2016-12-28T23:30:15Z</time>
      </trkpt>
      <trkpt lat="42.82836" lon="0.2223">
        <ele>2043</ele>
        <time>2016-12-28T23:32:15Z</time>
      </trkpt>
      <trkpt lat="42.82837" lon="0.22301">
        <ele>2048</ele>
        <time>2016-12-28T23:34:15Z</time>
      </trkpt>
      <trkpt lat="42.82842" lon="0.22434">
        <ele>2065</ele>
        <time>2016-12-28T23:36:15Z</time>
      </trkpt>
      <trkpt lat="42.82844" lon="0.22538">
        <ele>2081</ele>
        <time>2016-12-28T23:38:15Z</time>
      </trkpt>
      <trkpt lat="42.82877" lon="0.22686">
        <ele>2101</ele>
        <time>2016-12-28T23:40:15Z</time>
      </trkpt>
      <trkpt lat="42.82898" lon="0.2279">
        <ele>2114</ele>
        <time>2016-12-28T23:42:15Z</time>
      </trkpt>
      <trkpt lat="42.82937" lon="0.22904">
        <ele>2127</ele>
        <time>2016-12-28T23:44:15Z</time>
      </trkpt>
      <trkpt lat="42.82996" lon="0.23054">
        <ele>2150</ele>
        <time>2016-12-28T23:46:15Z</time>
      </trkpt>
      <trkpt lat="42.83045" lon="0.23166">
        <ele>2171</ele>
        <time>2016-12-28T23:48:15Z</time>
      </trkpt>
      <trkpt lat="42.83102" lon="0.23306">
        <ele>2189</ele>
        <time>2016-12-28T23:50:15Z</time>
      </trkpt>
      <trkpt lat="42.83185" lon="0.23429">
        <ele>2207</ele>
        <time>2016-12-28T23:52:15Z</time>
      </trkpt>
      <trkpt lat="42.83267" lon="0.23572">
        <ele>2212</ele>
        <time>2016-12-28T23:54:15Z</time>
      </trkpt>
      <trkpt lat="42.83306" lon="0.23639">
        <ele>2209</ele>
        <time>2016-12-28T23:56:15Z</time>
      </trkpt>
      <trkpt lat="42.83371" lon="0.23676">
        <ele>2206</ele>
        <time>2016-12-28T23:58:15Z</time>
      </trkpt>
      <trkpt lat="42.83421" lon="0.23693">
        <ele>2203</ele>
        <time>2016-12-29T00:00:15Z</time>
      </trkpt>
      <trkpt lat="42.83483" lon="0.23712">
        <ele>2201</ele>
        <time>2016-12-29T00:02:15Z</time>
      </trkpt>
      <trkpt lat="42.83536" lon="0.23759">
        <ele>2194</ele>
        <time>2016-12-29T00:04:15Z</time>
      </trkpt>
      <trkpt lat="42.83576" lon="0.23824">
        <ele>2186</ele>
        <time>2016-12-29T00:06:15Z</time>
      </trkpt>
      <trkpt lat="42.83566" lon="0.23912">
        <ele>2169</ele>
        <time>2016-12-29T00:08:15Z</time>
      </trkpt>
      <trkpt lat="42.83576" lon="0.24">
        <ele>2160</ele>
        <time>2016-12-29T00:10:15Z</time>
      </trkpt>
      <trkpt lat="42.83577" lon="0.24085">
        <ele>2150</ele>
        <time>2016-12-29T00:12:15Z</time>
      </trkpt>
      <trkpt lat="42.83574" lon="0.24163">
        <ele>2138</ele>
        <time>2016-12-29T00:14:15Z</time>
      </trkpt>
      <trkpt lat="42.83563" lon="0.24244">
        <ele>2122</ele>
        <time>2016-12-29T00:16:15Z</time>
      </trkpt>
      <trkpt lat="42.83536" lon="0.24328">
        <ele>2103</ele>
        <time>2016-12-29T00:18:15Z</time>
      </trkpt>
      <trkpt lat="42.83508" lon="0.24407">
        <ele>2087</ele>
        <time>2016-12-29T00:20:15Z</time>
      </trkpt>
      <trkpt lat="42.83486" lon="0.2447">
        <ele>2075</ele>
        <time>2016-12-29T00:22:15Z</time>
      </trkpt>
      <trkpt lat="42.83476" lon="0.24543">
        <ele>2067</ele>
        <time>2016-12-29T00:24:15Z</time>
      </trkpt>
      <trkpt lat="42.83476" lon="0.24624">
        <ele>2060</ele>
        <time>2016-12-29T00:26:15Z</time>
      </trkpt>
      <trkpt lat="42.83469" lon="0.24718">
        <ele>2047</ele>
        <time>2016-12-29T00:28:15Z</time>
      </trkpt>
      <trkpt lat="42.83495" lon="0.2474">
        <ele>2056</ele>
        <time>2016-12-29T00:30:15Z</time>
      </trkpt>
      <trkpt lat="42.83492" lon="0.24813">
        <ele>2049</ele>
        <time>2016-12-29T00:32:15Z</time>
      </trkpt>
      <trkpt lat="42.83483" lon="0.24888">
        <ele>2045</ele>
        <time>2016-12-29T00:34:15Z</time>
      </trkpt>
      <trkpt lat="42.83469" lon="0.24963">
        <ele>2045</ele>
        <time>2016-12-29T00:36:15Z</time>
      </trkpt>
      <trkpt lat="42.83447" lon="0.25032">
        <ele>2041</ele>
        <time>2016-12-29T00:38:15Z</time>
      </trkpt>
      <trkpt lat="42.8341" lon="0.25113">
        <ele>2031</ele>
        <time>2016-12-29T00:40:15Z</time>
      </trkpt>
      <trkpt lat="42.83355" lon="0.25248">
        <ele>2019</ele>
        <time>2016-12-29T00:42:15Z</time>
      </trkpt>
      <trkpt lat="42.83343" lon="0.25321">
        <ele>2017</ele>
        <time>2016-12-29T00:44:15Z</time>
      </trkpt>
      <trkpt lat="42.83341" lon="0.25429">
        <ele>2022</ele>
        <time>2016-12-29T00:46:15Z</time>
      </trkpt>
      <trkpt lat="42.83325" lon="0.25497">
        <ele>2020</ele>
        <time>2016-12-29T00:48:15Z</time>
      </trkpt>
      <trkpt lat="42.83313" lon="0.2559">
        <ele>2012</ele>
        <time>2016-12-29T00:50:15Z</time>
      </trkpt>
      <trkpt lat="42.83303" lon="0.25682">
        <ele>1999</ele>
        <time>2016-12-29T00:52:15Z</time>
      </trkpt>
      <trkpt lat="42.83329" lon="0.25727">
        <ele>2004</ele>
        <time>2016-12-29T00:54:15Z</time>
      </trkpt>
      <trkpt lat="42.83357" lon="0.25796">
        <ele>2004</ele>
        <time>2016-12-29T00:56:15Z</time>
      </trkpt>
      <trkpt lat="42.83366" lon="0.25862">
        <ele>1998</ele>
        <time>2016-12-29T00:58:15Z</time>
      </trkpt>
      <trkpt lat="42.83379" lon="0.25933">
        <ele>1995</ele>
        <time>2016-12-29T01:00:15Z</time>
      </trkpt>
      <trkpt lat="42.83395" lon="0.26015">
        <ele>1994</ele>
        <time>2016-12-29T01:02:15Z</time>
      </trkpt>
      <trkpt lat="42.83414" lon="0.26092">
        <ele>1994</ele>
        <time>2016-12-29T01:04:15Z</time>
      </trkpt>
      <trkpt lat="42.83426" lon="0.26178">
        <ele>1991</ele>
        <time>2016-12-29T01:06:15Z</time>
      </trkpt>
      <trkpt lat="42.83437" lon="0.2627">
        <ele>1987</ele>
        <time>2016-12-29T01:08:15Z</time>
      </trkpt>
      <trkpt lat="42.83442" lon="0.26354">
        <ele>1984</ele>
        <time>2016-12-29T01:10:15Z</time>
      </trkpt>
      <trkpt lat="42.83451" lon="0.26446">
        <ele>1981</ele>
        <time>2016-12-29T01:12:15Z</time>
      </trkpt>
      <trkpt lat="42.83456" lon="0.26529">
        <ele>1979</ele>
        <time>2016-12-29T01:14:15Z</time>
      </trkpt>
      <trkpt lat="42.83459" lon="0.26605">
        <ele>1976</ele>
        <time>2016-12-29T01:16:15Z</time>
      </trkpt>
      <trkpt lat="42.83475" lon="0.2668">
        <ele>1976</ele>
        <time>2016-12-29T01:18:15Z</time>
      </trkpt>
      <trkpt lat="42.83459" lon="0.26766">
        <ele>1964</ele>
        <time>2016-12-29T01:20:15Z</time>
      </trkpt>
      <trkpt lat="42.83464" lon="0.26847">
        <ele>1958</ele>
        <time>2016-12-29T01:22:15Z</time>
      </trkpt>
      <trkpt lat="42.8347" lon="0.26924">
        <ele>1954</ele>
        <time>2016-12-29T01:24:15Z</time>
      </trkpt>
      <trkpt lat="42.8344" lon="0.27085">
        <ele>1929</ele>
        <time>2016-12-29T01:26:15Z</time>
      </trkpt>
      <trkpt lat="42.83454" lon="0.27163">
        <ele>1935</ele>
        <time>2016-12-29T01:28:15Z</time>
      </trkpt>
      <trkpt lat="42.83458" lon="0.27248">
        <ele>1935</ele>
        <time>2016-12-29T01:30:15Z</time>
      </trkpt>
      <trkpt lat="42.83436" lon="0.27285">
        <ele>1921</ele>
        <time>2016-12-29T01:32:15Z</time>
      </trkpt>
      <trkpt lat="42.83409" lon="0.27356">
        <ele>1903</ele>
        <time>2016-12-29T01:34:15Z</time>
      </trkpt>
      <trkpt lat="42.83425" lon="0.27437">
        <ele>1906</ele>
        <time>2016-12-29T01:36:15Z</time>
      </trkpt>
      <trkpt lat="42.83437" lon="0.27517">
        <ele>1901</ele>
        <time>2016-12-29T01:38:15Z</time>
      </trkpt>
      <trkpt lat="42.83467" lon="0.27594">
        <ele>1906</ele>
        <time>2016-12-29T01:40:15Z</time>
      </trkpt>
      <trkpt lat="42.83481" lon="0.27688">
        <ele>1907</ele>
        <time>2016-12-29T01:42:15Z</time>
      </trkpt>
      <trkpt lat="42.83492" lon="0.27785">
        <ele>1909</ele>
        <time>2016-12-29T01:44:15Z</time>
      </trkpt>
      <trkpt lat="42.8351" lon="0.27875">
        <ele>1912</ele>
        <time>2016-12-29T01:46:15Z</time>
      </trkpt>
      <trkpt lat="42.83522" lon="0.27971">
        <ele>1902</ele>
        <time>2016-12-29T01:48:15Z</time>
      </trkpt>
      <trkpt lat="42.83538" lon="0.28051">
        <ele>1889</ele>
        <time>2016-12-29T01:50:15Z</time>
      </trkpt>
      <trkpt lat="42.83552" lon="0.28135">
        <ele>1875</ele>
        <time>2016-12-29T01:52:15Z</time>
      </trkpt>
      <trkpt lat="42.83583" lon="0.28201">
        <ele>1874</ele>
        <time>2016-12-29T01:54:15Z</time>
      </trkpt>
      <trkpt lat="42.83621" lon="0.28268">
        <ele>1861</ele>
        <time>2016-12-29T01:56:15Z</time>
      </trkpt>
      <trkpt lat="42.83653" lon="0.28328">
        <ele>1852</ele>
        <time>2016-12-29T01:58:15Z</time>
      </trkpt>
      <trkpt lat="42.83683" lon="0.28388">
        <ele>1837</ele>
        <time>2016-12-29T02:00:15Z</time>
      </trkpt>
      <trkpt lat="42.83709" lon="0.28452">
        <ele>1821</ele>
        <time>2016-12-29T02:02:15Z</time>
      </trkpt>
      <trkpt lat="42.83725" lon="0.2854">
        <ele>1806</ele>
        <time>2016-12-29T02:04:15Z</time>
      </trkpt>
      <trkpt lat="42.83753" lon="0.28611">
        <ele>1793</ele>
        <time>2016-12-29T02:06:15Z</time>
      </trkpt>
      <trkpt lat="42.83785" lon="0.28673">
        <ele>1777</ele>
        <time>2016-12-29T02:08:15Z</time>
      </trkpt>
      <trkpt lat="42.83797" lon="0.28755">
        <ele>1761</ele>
        <time>2016-12-29T02:10:15Z</time>
      </trkpt>
      <trkpt lat="42.83807" lon="0.28838">
        <ele>1742</ele>
        <time>2016-12-29T02:12:15Z</time>
      </trkpt>
      <trkpt lat="42.83812" lon="0.28918">
        <ele>1722</ele>
        <time>2016-12-29T02:14:15Z</time>
      </trkpt>
      <trkpt lat="42.83799" lon="0.28989">
        <ele>1704</ele>
        <time>2016-12-29T02:16:15Z</time>
      </trkpt>
      <trkpt lat="42.83779" lon="0.2907">
        <ele>1687</ele>
        <time>2016-12-29T02:18:15Z</time>
      </trkpt>
      <trkpt lat="42.83785" lon="0.29173">
        <ele>1671</ele>
        <time>2016-12-29T02:20:15Z</time>
      </trkpt>
      <trkpt lat="42.83796" lon="0.29255">
        <ele>1662</ele>
        <time>2016-12-29T02:22:15Z</time>
      </trkpt>
      <trkpt lat="42.83823" lon="0.29323">
        <ele>1657</ele>
        <time>2016-12-29T02:24:15Z</time>
      </trkpt>
      <trkpt lat="42.83837" lon="0.29418">
        <ele>1647</ele>
        <time>2016-12-29T02:26:15Z</time>
      </trkpt>
      <trkpt lat="42.83843" lon="0.29523">
        <ele>1635</ele>
        <time>2016-12-29T02:28:15Z</time>
      </trkpt>
      <trkpt lat="42.83868" lon="0.29607">
        <ele>1622</ele>
        <time>2016-12-29T02:30:15Z</time>
      </trkpt>
      <trkpt lat="42.83879" lon="0.29686">
        <ele>1616</ele>
        <time>2016-12-29T02:32:15Z</time>
      </trkpt>
      <trkpt lat="42.83851" lon="0.29772">
        <ele>1615</ele>
        <time>2016-12-29T02:34:15Z</time>
      </trkpt>
      <trkpt lat="42.83834" lon="0.29832">
        <ele>1614</ele>
        <time>2016-12-29T02:36:15Z</time>
      </trkpt>
      <trkpt lat="42.83851" lon="0.29916">
        <ele>1611</ele>
        <time>2016-12-29T02:38:15Z</time>
      </trkpt>
      <trkpt lat="42.83813" lon="0.29905">
        <ele>1606</ele>
        <time>2016-12-29T02:40:15Z</time>
      </trkpt>
      <trkpt lat="42.83769" lon="0.29914">
        <ele>1591</ele>
        <time>2016-12-29T02:42:15Z</time>
      </trkpt>
      <trkpt lat="42.83753" lon="0.29998">
        <ele>1577</ele>
        <time>2016-12-29T02:44:15Z</time>
      </trkpt>
      <trkpt lat="42.8374" lon="0.30086">
        <ele>1569</ele>
        <time>2016-12-29T02:46:15Z</time>
      </trkpt>
      <trkpt lat="42.83703" lon="0.30068">
        <ele>1550</ele>
        <time>2016-12-29T02:48:15Z</time>
      </trkpt>
      <trkpt lat="42.83679" lon="0.30031">
        <ele>1538</ele>
        <time>2016-12-29T02:50:15Z</time>
      </trkpt>
      <trkpt lat="42.83651" lon="0.30069">
        <ele>1522</ele>
        <time>2016-12-29T02:52:15Z</time>
      </trkpt>
      <trkpt lat="42.83623" lon="0.29995">
        <ele>1511</ele>
        <time>2016-12-29T02:54:15Z</time>
      </trkpt>
      <trkpt lat="42.83585" lon="0.2995">
        <ele>1496</ele>
        <time>2016-12-29T02:56:15Z</time>
      </trkpt>
      <trkpt lat="42.83565" lon="0.2988">
        <ele>1494</ele>
        <time>2016-12-29T02:58:15Z</time>
      </trkpt>
      <trkpt lat="42.83552" lon="0.29801">
        <ele>1498</ele>
        <time>2016-12-29T03:00:15Z</time>
      </trkpt>
      <trkpt lat="42.83488" lon="0.29757">
        <ele>1480</ele>
        <time>2016-12-29T03:02:15Z</time>
      </trkpt>
      <trkpt lat="42.83453" lon="0.29775">
        <ele>1465</ele>
        <time>2016-12-29T03:04:15Z</time>
      </trkpt>
      <trkpt lat="42.83445" lon="0.29795">
        <ele>1459</ele>
        <time>2016-12-29T03:06:15Z</time>
      </trkpt>
      <trkpt lat="42.83406" lon="0.29767">
        <ele>1447</ele>
        <time>2016-12-29T03:08:15Z</time>
      </trkpt>
      <trkpt lat="42.83358" lon="0.29762">
        <ele>1425</ele>
        <time>2016-12-29T03:10:15Z</time>
      </trkpt>
      <trkpt lat="42.83322" lon="0.29735">
        <ele>1410</ele>
        <time>2016-12-29T03:12:15Z</time>
      </trkpt>
      <trkpt lat="42.83279" lon="0.29688">
        <ele>1395</ele>
        <time>2016-12-29T03:14:15Z</time>
      </trkpt>
      <trkpt lat="42.83262" lon="0.29614">
        <ele>1391</ele>
        <time>2016-12-29T03:16:15Z</time>
      </trkpt>
      <trkpt lat="42.83241" lon="0.2954">
        <ele>1386</ele>
        <time>2016-12-29T03:18:15Z</time>
      </trkpt>
      <trkpt lat="42.8323" lon="0.29437">
        <ele>1393</ele>
        <time>2016-12-29T03:20:15Z</time>
      </trkpt>
      <trkpt lat="42.83185" lon="0.29425">
        <ele>1381</ele>
        <time>2016-12-29T03:22:15Z</time>
      </trkpt>
      <trkpt lat="42.83115" lon="0.29424">
        <ele>1356</ele>
        <time>2016-12-29T03:24:15Z</time>
      </trkpt>
      <trkpt lat="42.83069" lon="0.29417">
        <ele>1341</ele>
        <time>2016-12-29T03:26:15Z</time>
      </trkpt>
      <trkpt lat="42.83045" lon="0.29426">
        <ele>1326</ele>
        <time>2016-12-29T03:28:15Z</time>
      </trkpt>
      <trkpt lat="42.8307" lon="0.29461">
        <ele>1321</ele>
        <time>2016-12-29T03:30:15Z</time>
      </trkpt>
      <trkpt lat="42.83095" lon="0.29499">
        <ele>1313</ele>
        <time>2016-12-29T03:32:15Z</time>
      </trkpt>
      <trkpt lat="42.83089" lon="0.29544">
        <ele>1302</ele>
        <time>2016-12-29T03:34:15Z</time>
      </trkpt>
      <trkpt lat="42.83095" lon="0.29617">
        <ele>1296</ele>
        <time>2016-12-29T03:36:15Z</time>
      </trkpt>
      <trkpt lat="42.83097" lon="0.29668">
        <ele>1292</ele>
        <time>2016-12-29T03:38:15Z</time>
      </trkpt>
      <trkpt lat="42.83084" lon="0.29698">
        <ele>1281</ele>
        <time>2016-12-29T03:40:15Z</time>
      </trkpt>
      <trkpt lat="42.83078" lon="0.29785">
        <ele>1268</ele>
        <time>2016-12-29T03:42:15Z</time>
      </trkpt>
      <trkpt lat="42.83079" lon="0.29881">
        <ele>1256</ele>
        <time>2016-12-29T03:44:15Z</time>
      </trkpt>
      <trkpt lat="42.83086" lon="0.29967">
        <ele>1250</ele>
        <time>2016-12-29T03:46:15Z</time>
      </trkpt>
      <trkpt lat="42.83095" lon="0.3003">
        <ele>1249</ele>
        <time>2016-12-29T03:48:15Z</time>
      </trkpt>
      <trkpt lat="42.83102" lon="0.30101">
        <ele>1245</ele>
        <time>2016-12-29T03:50:15Z</time>
      </trkpt>
      <trkpt lat="42.83122" lon="0.30162">
        <ele>1251</ele>
        <time>2016-12-29T03:52:15Z</time>
      </trkpt>
      <trkpt lat="42.83102" lon="0.30129">
        <ele>1241</ele>
        <time>2016-12-29T03:54:15Z</time>
      </trkpt>
      <trkpt lat="42.83073" lon="0.3009">
        <ele>1229</ele>
        <time>2016-12-29T03:56:15Z</time>
      </trkpt>
      <trkpt lat="42.83055" lon="0.30033">
        <ele>1227</ele>
        <time>2016-12-29T03:58:15Z</time>
      </trkpt>
      <trkpt lat="42.83034" lon="0.29975">
        <ele>1224</ele>
        <time>2016-12-29T04:00:15Z</time>
      </trkpt>
      <trkpt lat="42.8301" lon="0.29918">
        <ele>1220</ele>
        <time>2016-12-29T04:02:15Z</time>
      </trkpt>
      <trkpt lat="42.82992" lon="0.29848">
        <ele>1222</ele>
        <time>2016-12-29T04:04:15Z</time>
      </trkpt>
      <trkpt lat="42.82982" lon="0.29784">
        <ele>1225</ele>
        <time>2016-12-29T04:06:15Z</time>
      </trkpt>
      <trkpt lat="42.82975" lon="0.29864">
        <ele>1209</ele>
        <time>2016-12-29T04:08:15Z</time>
      </trkpt>
      <trkpt lat="42.82971" lon="0.29921">
        <ele>1198</ele>
        <time>2016-12-29T04:10:15Z</time>
      </trkpt>
      <trkpt lat="42.82985" lon="0.29976">
        <ele>1199</ele>
        <time>2016-12-29T04:12:15Z</time>
      </trkpt>
      <trkpt lat="42.82995" lon="0.3012">
        <ele>1185</ele>
        <time>2016-12-29T04:14:15Z</time>
      </trkpt>
      <trkpt lat="42.82996" lon="0.30195">
        <ele>1174</ele>
        <time>2016-12-29T04:16:15Z</time>
      </trkpt>
      <trkpt lat="42.82973" lon="0.30141">
        <ele>1170</ele>
        <time>2016-12-29T04:18:15Z</time>
      </trkpt>
      <trkpt lat="42.82948" lon="0.30055">
        <ele>1169</ele>
        <time>2016-12-29T04:20:15Z</time>
      </trkpt>
      <trkpt lat="42.82912" lon="0.29972">
        <ele>1161</ele>
        <time>2016-12-29T04:22:15Z</time>
      </trkpt>
      <trkpt lat="42.82917" lon="0.30064">
        <ele>1151</ele>
        <time>2016-12-29T04:24:15Z</time>
      </trkpt>
      <trkpt lat="42.82902" lon="0.30148">
        <ele>1137</ele>
        <time>2016-12-29T04:26:15Z</time>
      </trkpt>
      <trkpt lat="42.82902" lon="0.30215">
        <ele>1125</ele>
        <time>2016-12-29T04:28:15Z</time>
      </trkpt>
      <trkpt lat="42.82915" lon="0.30237">
        <ele>1122</ele>
        <time>2016-12-29T04:30:15Z</time>
      </trkpt>
      <trkpt lat="42.82897" lon="0.30292">
        <ele>1110</ele>
        <time>2016-12-29T04:32:15Z</time>
      </trkpt>
      <trkpt lat="42.82883" lon="0.30337">
        <ele>1100</ele>
        <time>2016-12-29T04:34:15Z</time>
      </trkpt>
      <trkpt lat="42.829" lon="0.30379">
        <ele>1099</ele>
        <time>2016-12-29T04:36:15Z</time>
      </trkpt>
      <trkpt lat="42.82884" lon="0.30411">
        <ele>1090</ele>
        <time>2016-12-29T04:38:15Z</time>
      </trkpt>
      <trkpt lat="42.8287" lon="0.30366">
        <ele>1093</ele>
        <time>2016-12-29T04:40:15Z</time>
      </trkpt>
      <trkpt lat="42.82859" lon="0.30308">
        <ele>1101</ele>
        <time>2016-12-29T04:42:15Z</time>
      </trkpt>
      <trkpt lat="42.82842" lon="0.30349">
        <ele>1090</ele>
        <time>2016-12-29T04:44:15Z</time>
      </trkpt>
      <trkpt lat="42.82815" lon="0.30395">
        <ele>1085</ele>
        <time>2016-12-29T04:46:15Z</time>
      </trkpt>
      <trkpt lat="42.82799" lon="0.30431">
        <ele>1081</ele>
        <time>2016-12-29T04:48:15Z</time>
      </trkpt>
      <trkpt lat="42.82801" lon="0.30472">
        <ele>1068</ele>
        <time>2016-12-29T04:50:15Z</time>
      </trkpt>
      <trkpt lat="42.82808" lon="0.30513">
        <ele>1055</ele>
        <time>2016-12-29T04:52:15Z</time>
      </trkpt>
      <trkpt lat="42.8282" lon="0.30581">
        <ele>1035</ele>
        <time>2016-12-29T04:54:15Z</time>
      </trkpt>
      <trkpt lat="42.82811" lon="0.30645">
        <ele>1026</ele>
        <time>2016-12-29T04:56:15Z</time>
      </trkpt>
      <trkpt lat="42.82808" lon="0.30727">
        <ele>1007</ele>
        <time>2016-12-29T04:58:15Z</time>
      </trkpt>
      <trkpt lat="42.82798" lon="0.30812">
        <ele>991</ele>
        <time>2016-12-29T05:00:15Z</time>
      </trkpt>
      <trkpt lat="42.82783" lon="0.30903">
        <ele>977</ele>
        <time>2016-12-29T05:02:15Z</time>
      </trkpt>
      <trkpt lat="42.82765" lon="0.30984">
        <ele>964</ele>
        <time>2016-12-29T05:04:15Z</time>
      </trkpt>
      <trkpt lat="42.82751" lon="0.31074">
        <ele>939</ele>
        <time>2016-12-29T05:06:15Z</time>
      </trkpt>
      <trkpt lat="42.82751" lon="0.31183">
        <ele>890</ele>
        <time>2016-12-29T05:08:15Z</time>
      </trkpt>
      <trkpt lat="42.82643" lon="0.31243">
        <ele>871</ele>
        <time>2016-12-29T05:10:15Z</time>
      </trkpt>
      <trkpt lat="42.82541" lon="0.31331">
        <ele>835</ele>
        <time>2016-12-29T05:12:15Z</time>
      </trkpt>
      <trkpt lat="42.82618" lon="0.31371">
        <ele>833</ele>
        <time>2016-12-29T05:14:15Z</time>
      </trkpt>
      <trkpt lat="42.82683" lon="0.3137">
        <ele>839</ele>
        <time>2016-12-29T05:16:15Z</time>
      </trkpt>
      <trkpt lat="42.82728" lon="0.31398">
        <ele>844</ele>
        <time>2016-12-29T05:18:15Z</time>
      </trkpt>
      <trkpt lat="42.82681" lon="0.31457">
        <ele>826</ele>
        <time>2016-12-29T05:20:15Z</time>
      </trkpt>
      <trkpt lat="42.82656" lon="0.31513">
        <ele>817</ele>
        <time>2016-12-29T05:22:15Z</time>
      </trkpt>
      <trkpt lat="42.82609" lon="0.31566">
        <ele>813</ele>
        <time>2016-12-29T05:24:15Z</time>
      </trkpt>
      <trkpt lat="42.82554" lon="0.31649">
        <ele>807</ele>
        <time>2016-12-29T05:26:15Z</time>
      </trkpt>
      <trkpt lat="42.82553" lon="0.31762">
        <ele>802</ele>
        <time>2016-12-29T05:28:15Z</time>
      </trkpt>
      <trkpt lat="42.82574" lon="0.31784">
        <ele>802</ele>
        <time>2016-12-29T05:30:15Z</time>
      </trkpt>
      <trkpt lat="42.82553" lon="0.31883">
        <ele>800</ele>
        <time>2016-12-29T05:32:15Z</time>
      </trkpt>
      <trkpt lat="42.82523" lon="0.31982">
        <ele>800</ele>
        <time>2016-12-29T05:34:15Z</time>
      </trkpt>
      <trkpt lat="42.82482" lon="0.32073">
        <ele>800</ele>
        <time>2016-12-29T05:36:15Z</time>
      </trkpt>
      <trkpt lat="42.82441" lon="0.3215">
        <ele>800</ele>
        <time>2016-12-29T05:38:15Z</time>
      </trkpt>
      <trkpt lat="42.824" lon="0.32242">
        <ele>800</ele>
        <time>2016-12-29T05:40:15Z</time>
      </trkpt>
      <trkpt lat="42.82369" lon="0.32301">
        <ele>800</ele>
        <time>2016-12-29T05:42:15Z</time>
      </trkpt>
      <trkpt lat="42.82409" lon="0.3235">
        <ele>800</ele>
        <time>2016-12-29T05:44:15Z</time>
      </trkpt>
      <trkpt lat="42.82458" lon="0.3239">
        <ele>800</ele>
        <time>2016-12-29T05:46:15Z</time>
      </trkpt>
      <trkpt lat="42.82513" lon="0.32436">
        <ele>800</ele>
        <time>2016-12-29T05:48:15Z</time>
      </trkpt>
      <trkpt lat="42.82569" lon="0.32599">
        <ele>799</ele>
        <time>2016-12-29T05:50:15Z</time>
      </trkpt>
      <trkpt lat="42.82614" lon="0.32664">
        <ele>798</ele>
        <time>2016-12-29T05:52:15Z</time>
      </trkpt>
      <trkpt lat="42.82667" lon="0.32698">
        <ele>797</ele>
        <time>2016-12-29T05:54:15Z</time>
      </trkpt>
      <trkpt lat="42.82724" lon="0.32721">
        <ele>796</ele>
        <time>2016-12-29T05:56:15Z</time>
      </trkpt>
      <trkpt lat="42.82794" lon="0.32744">
        <ele>795</ele>
        <time>2016-12-29T05:58:15Z</time>
      </trkpt>
      <trkpt lat="42.82847" lon="0.32787">
        <ele>794</ele>
        <time>2016-12-29T06:00:15Z</time>
      </trkpt>
      <trkpt lat="42.82907" lon="0.3282">
        <ele>793</ele>
        <time>2016-12-29T06:02:15Z</time>
      </trkpt>
      <trkpt lat="42.82959" lon="0.32846">
        <ele>792</ele>
        <time>2016-12-29T06:04:15Z</time>
      </trkpt>
      <trkpt lat="42.82974" lon="0.32791">
        <ele>792</ele>
        <time>2016-12-29T06:06:15Z</time>
      </trkpt>
      <trkpt lat="42.82985" lon="0.32711">
        <ele>793</ele>
        <time>2016-12-29T06:08:15Z</time>
      </trkpt>
    </trkseg>
  </trk>
</gpx>